Home > Products > Valid Products > MTR

000
SAUS46 KLOX 220215
MTRMWS
METAR KMWS 220200Z 10006G07KT 17/M05 RMK SNOW DEPTH  M





000
SAUS46 KLOX 220156
MTR9L2
METAR K9L2 220155Z AUTO 25013G20KT 10SM CLR 28/04 A2992 RMK AO2
SLP118 T02780044 $





000
SAUS46 KLOX 220155
MTRLAX
METAR KLAX 220153Z 27013KT 10SM FEW015 21/17 A2994 RMK AO2 SLP134
T02060167





000
SAUS46 KLOX 220154
MTRMWS
METAR KMWS 220145Z 08004G06KT 18/M03 RMK SNOW DEPTH  M





000
SAUS46 KLOX 220152
MTRSMX
METAR KSMX 220151Z 30010KT 10SM FEW010 19/14 A2998 RMK AO2 SLP154
T01890144





000
SAUS46 KLOX 220149
MTRSDB
METAR KSDB 220148Z AUTO 21009KT 10SM 20/08 A3010 RMK AO2 SLP149
T02000083 $





000
SAUS46 KLOX 220149
MTRCQT
METAR KCQT 220147Z AUTO VRB04KT 10SM CLR 22/15 A2992 RMK AO2 SLP130
T02170150





000
SAUS46 KLOX 220136
MTRMWS
METAR KMWS 220130Z 23500G00KT MM/03 RMK SNOW DEPTH  M





000
SAUS46 KLOX 220115
MTRMWS
METAR KMWS 220100Z 22003G05KT 21/08 RMK SNOW DEPTH  M





000
SAUS46 KLOX 220056
MTR9L2
METAR K9L2 220055Z AUTO 26012KT 10SM CLR 31/05 A2990 RMK AO2 SLP110
T03110050 $





000
SAUS46 KLOX 220054
MTRLAX
METAR KLAX 220053Z 28013KT 10SM FEW015 22/16 A2993 RMK AO2 SLP135
T02170161





000
SAUS46 KLOX 220054
MTRMWS
METAR KMWS 220045Z 21004G05KT 22/05 RMK SNOW DEPTH  M





000
SAUS46 KLOX 220053
MTRSMX
METAR KSMX 220051Z 31014KT 10SM FEW016 21/14 A2998 RMK AO2 SLP151
T02060144





000
SAUS46 KLOX 220050
MTRSDB
METAR KSDB 220048Z AUTO 22011KT 10SM CLR 23/07 A3010 RMK AO2 SLP142
T02330067





000
SAUS46 KLOX 220048
MTRCQT
METAR KCQT 220047Z AUTO VRB06KT 10SM CLR 23/16 A2992 RMK AO2 SLP129
T02280156





000
SAUS46 KLOX 220036
MTRMWS
METAR KMWS 220030Z 23500G00KT MM/04 RMK SNOW DEPTH  M





000
SAUS46 KLOX 220015
MTRMWS
METAR KMWS 220000Z 22003G06KT 23/09 RMK SNOW DEPTH  M





000
SAUS46 KLOX 212356
MTR9L2
METAR K9L2 212355Z AUTO 12005KT 10SM CLR 31/02 A2991 RMK AO2 SLP109
T03110022 10322 20244 56012 $





000
SAUS46 KLOX 212355
MTRLAX
METAR KLAX 212353Z 27014KT 10SM FEW015 22/16 A2993 RMK AO2 SLP134
T02220161 10250 20217 56008





000
SAUS46 KLOX 212354
MTRMWS
METAR KMWS 212345Z 27503G05KT 22/10 RMK SNOW DEPTH  M





000
SAUS46 KLOX 212352
MTRSMX
METAR KSMX 212351Z 28014G19KT 10SM SCT018 22/14 A2997 RMK AO2 SLP150
T02170144 10233 20194 56009





000
SAUS46 KLOX 212349
MTRSDB
METAR KSDB 212348Z AUTO 20011KT 10SM CLR 26/03 A3009 RMK AO2 SLP136
T02610033 10283 20250 56003





000
SAUS46 KLOX 212349
MTRCQT
METAR KCQT 212347Z AUTO VRB04KT 10SM CLR 24/15 A2992 RMK AO2 SLP128
T02390150 10261 20217 58006





000
SAUS46 KLOX 212336
MTRMWS
METAR KMWS 212330Z 23500G00KT MM/12 RMK SNOW DEPTH  M





000
SAUS46 KLOX 212315
MTRMWS
METAR KMWS 212300Z 23006G08KT 22/12 RMK SNOW DEPTH  M





000
SAUS46 KLOX 212256
MTR9L2
METAR K9L2 212255Z AUTO 13007KT 10SM CLR 32/03 A2991 RMK AO2 SLP110
T03170028 $





000
SAUS46 KLOX 212254
MTRMWS
METAR KMWS 212245Z 23503G05KT 23/12 RMK SNOW DEPTH  M





000
SAUS46 KLOX 212254
MTRLAX
METAR KLAX 212253Z 26015KT 10SM FEW015 23/16 A2994 RMK AO2 SLP137
T02280156





000
SAUS46 KLOX 212252
MTRSMX
METAR KSMX 212251Z 29014KT 10SM SCT018 22/14 A2998 RMK AO2 SLP153
T02220144





000
SAUS46 KLOX 212249
MTRCQT
METAR KCQT 212247Z AUTO 24004KT 10SM CLR 24/15 A2992 RMK AO2 SLP130
T02440150





000
SAUS46 KLOX 212249
MTRSDB
METAR KSDB 212248Z AUTO 21012G17KT 10SM CLR 27/02 A3009 RMK AO2
SLP136 T02720022





000
SAUS46 KLOX 212236
MTRMWS
METAR KMWS 212230Z 23500G00KT MM/12 RMK SNOW DEPTH  M





000
SAUS46 KLOX 212215
MTRMWS
METAR KMWS 212200Z 23004G06KT 24/11 RMK SNOW DEPTH  M





000
SAUS46 KLOX 212159
MTR9L2
METAR K9L2 212155Z AUTO 00000KT 10SM CLR 31/02 A2993 RMK AO2 SLP117
T03110017 $





000
SAUS46 KLOX 212154
MTRMWS
METAR KMWS 212145Z 24004G07KT 24/12 RMK SNOW DEPTH  M





000
SAUS46 KLOX 212154
MTRLAX
METAR KLAX 212153Z 26013KT 10SM FEW016 24/14 A2995 RMK AO2 T02390144





000
SAUS46 KLOX 212153
MTRSMX
METAR KSMX 212151Z 30013KT 10SM SCT018 23/14 A2999 RMK AO2 SLP154
T02280144





000
SAUS46 KLOX 212149
MTRSDB
METAR KSDB 212148Z AUTO 19012KT 10SM CLR 27/03 A3010 RMK AO2 SLP137
T02720033





000
SAUS46 KLOX 212148
MTRCQT
METAR KCQT 212147Z AUTO VRB03KT 10SM CLR 25/15 A2993 RMK AO2 SLP133
T02500150





000
SAUS46 KLOX 212136
MTRMWS
METAR KMWS 212130Z 23500G00KT MM/11 RMK SNOW DEPTH  M





000
SAUS46 KLOX 212115
MTRMWS
METAR KMWS 212100Z 25002G04KT 24/11 RMK SNOW DEPTH  M





000
SAUS46 KLOX 212056
MTR9L2
METAR K9L2 212055Z AUTO VRB06KT 10SM CLR 28/05 A2994 RMK AO2 SLP122
T02780050 58018 $





000
SAUS46 KLOX 212054
MTRMWS
METAR KMWS 212045Z 25002G03KT 23/12 RMK SNOW DEPTH  M





000
SAUS46 KLOX 212054
MTRLAX
METAR KLAX 212053Z 27011KT 10SM FEW014 24/14 A2996 RMK AO2 SLP143
T02390144 58016





000
SAUS46 KLOX 212052
MTRSMX
METAR KSMX 212051Z 31012KT 10SM SCT018 23/14 A3000 RMK AO2 SLP159
T02280139 58010





000
SAUS46 KLOX 212049
MTRSDB
METAR KSDB 212048Z AUTO 18010KT 10SM CLR 28/09 A3010 RMK AO2 SLP137
T02830089 58009





000
SAUS46 KLOX 212048
MTRCQT
METAR KCQT 212047Z AUTO 00000KT 10SM CLR 26/15 A2993 RMK AO2 SLP134
T02560150 58021





000
SAUS46 KLOX 212036
MTRMWS
METAR KMWS 212030Z 23500G00KT MM/09 RMK SNOW DEPTH  M





000
SAUS46 KLOX 212015
MTRMWS
METAR KMWS 212000Z 04520G16KT 25/07 RMK SNOW DEPTH  M





000
SAUS46 KLOX 211959
MTR9L2
METAR K9L2 211955Z AUTO 13004KT 10SM CLR 29/08 A2997 RMK AO2 SLP130
T02890078 $





000
SAUS46 KLOX 211954
MTRLAX
METAR KLAX 211953Z 27009KT 10SM FEW014 SCT029 24/14 A2998 RMK AO2
SLP149 T02390144





000
SAUS46 KLOX 211954
MTRMWS
METAR KMWS 211945Z 24503G05KT 24/09 RMK SNOW DEPTH  M





000
SAUS46 KLOX 211953
MTRSMX
METAR KSMX 211951Z 30010KT 10SM SCT018 23/14 A3002 RMK AO2 SLP164
T02330144





000
SAUS46 KLOX 211949
MTRSDB
METAR KSDB 211948Z AUTO 19009KT 10SM CLR 26/09 A3012 RMK AO2 SLP143
T02610089





000
SAUS46 KLOX 211948
MTRCQT
METAR KCQT 211947Z AUTO VRB04KT 10SM CLR 25/16 A2996 RMK AO2 SLP142
T02500156





000
SAUS46 KLOX 211936
MTRMWS
METAR KMWS 211930Z 23500G00KT MM/06 RMK SNOW DEPTH  M





000
SAUS46 KLOX 211918
MTRSMX
SPECI KSMX 211916Z 34008KT 10SM SCT018 22/14 A3002 RMK AO2 T02220144





000
SAUS46 KLOX 211915
MTRMWS
METAR KMWS 211900Z 16001G03KT 26/04 RMK SNOW DEPTH  M





000
SAUS46 KLOX 211909
MTRLAX
SPECI KLAX 211907Z 21004KT 10SM SCT028 23/15 A2999 RMK AO2





000
SAUS46 KLOX 211903
MTRCQT
SPECI KCQT 211902Z AUTO 00000KT 10SM SCT027 25/16 A2998 RMK AO2
T02500156





000
SAUS46 KLOX 211859
MTR9L2
METAR K9L2 211855Z AUTO VRB03KT 10SM CLR 27/09 A2999 RMK AO2 SLP136
T02670089 $





000
SAUS46 KLOX 211854
MTRMWS
METAR KMWS 211845Z 25001G03KT 25/05 RMK SNOW DEPTH  M





000
SAUS46 KLOX 211854
MTRLAX
METAR KLAX 211853Z 21005KT 10SM BKN028 23/15 A2999 RMK AO2 SLP155
T02280150





000
SAUS46 KLOX 211852
MTRSMX
METAR KSMX 211851Z 23005KT 10SM BKN016 21/14 A3002 RMK AO2 SLP167
T02060139





000
SAUS46 KLOX 211849
MTRSDB
METAR KSDB 211848Z AUTO 17008KT 10SM FEW055 26/08 A3013 RMK AO2
SLP146 T02610078





000
SAUS46 KLOX 211848
MTRCQT
METAR KCQT 211847Z AUTO 00000KT 10SM OVC027 23/16 A2998 RMK AO2
SLP150 T02330156





000
SAUS46 KLOX 211836
MTRMWS
METAR KMWS 211830Z 23500G00KT MM/04 RMK SNOW DEPTH  M





000
SAUS46 KLOX 211815
MTRSMX
SPECI KSMX 211814Z VRB03KT 10SM OVC015 20/14 A3003 RMK AO2 T02000144





000
SAUS46 KLOX 211815
MTRMWS
METAR KMWS 211800Z 25501G03KT 24/06 RMK SNOW DEPTH  M





000
SAUS46 KLOX 211756
MTR9L2
METAR K9L2 211755Z AUTO 00000KT 10SM CLR 24/09 A3000 RMK AO2 SLP143
T02440094 10244 20156 50002 $





000
SAUS46 KLOX 211754
MTRLAX
METAR KLAX 211753Z 29007KT 10SM OVC026 22/15 A3001 RMK AO2 SLP159
T02170150 10217 20178 51006





000
SAUS46 KLOX 211754
MTRMWS
METAR KMWS 211745Z 23501G03KT 25/07 RMK SNOW DEPTH  M





000
SAUS46 KLOX 211752
MTRSMX
METAR KSMX 211751Z 00000KT 10SM OVC014 19/14 A3003 RMK AO2 SLP169
T01940139 10200 20172 50007





000
SAUS46 KLOX 211749
MTRSDB
METAR KSDB 211748Z AUTO VRB04KT 10SM CLR 25/09 A3013 RMK AO2 SLP151
T02500089 10256 20144 51009





000
SAUS46 KLOX 211748
MTRCQT
METAR KCQT 211747Z AUTO 00000KT 10SM OVC024 22/16 A3000 RMK AO2
SLP155 T02220156 10222 20189 51006





000
SAUS46 KLOX 211736
MTRMWS
METAR KMWS 211730Z 23500G00KT MM/07 RMK SNOW DEPTH  M





000
SAUS46 KLOX 211715
MTRMWS
METAR KMWS 211700Z 28501G02KT 23/04 RMK SNOW DEPTH  M





000
SAUS46 KLOX 211656
MTR9L2
METAR K9L2 211655Z AUTO 16003KT 10SM CLR 22/09 A3001 RMK AO2 SLP147
T02170089 $





000
SAUS46 KLOX 211654
MTRMWS
METAR KMWS 211645Z 05501G03KT 22/06 RMK SNOW DEPTH  M





000
SAUS46 KLOX 211654
MTRLAX
METAR KLAX 211653Z 00000KT 10SM SCT020 BKN023 OVC029 21/16 A3001 RMK
AO2 SLP159 T02110156





000
SAUS46 KLOX 211653
MTRSMX
METAR KSMX 211651Z 35003KT 10SM OVC012 19/14 A3003 RMK AO2 SLP171
T01890139





000
SAUS46 KLOX 211649
MTRSDB
METAR KSDB 211648Z AUTO 00000KT 10SM CLR 23/09 A3013 RMK AO2 SLP152
T02280094





000
SAUS46 KLOX 211648
MTRCQT
METAR KCQT 211647Z AUTO 00000KT 10SM OVC023 21/16 A3000 RMK AO2
SLP155 T02110156





000
SAUS46 KLOX 211636
MTRMWS
METAR KMWS 211630Z 23500G00KT MM/04 RMK SNOW DEPTH  M





000
SAUS46 KLOX 211615
MTRMWS
METAR KMWS 211600Z 01003G04KT 20/06 RMK SNOW DEPTH  M





000
SAUS46 KLOX 211559
MTR9L2
METAR K9L2 211555Z AUTO 16003KT 10SM CLR 19/09 A3000 RMK AO2 SLP145
T01890089 $





000
SAUS46 KLOX 211554
MTRMWS
METAR KMWS 211545Z 03002G04KT 20/08 RMK SNOW DEPTH  M





000
SAUS46 KLOX 211554
MTRLAX
METAR KLAX 211553Z 03004KT 10SM FEW015 SCT020 BKN027 21/16 A3000 RMK
AO2 SLP155 T02110161





000
SAUS46 KLOX 211553
MTRSMX
METAR KSMX 211551Z 30005KT 10SM OVC012 18/14 A3002 RMK AO2 SLP168
T01830139





000
SAUS46 KLOX 211549
MTRSDB
METAR KSDB 211548Z AUTO 23004KT 10SM CLR 19/07 A3012 RMK AO2 SLP154
T01890072





000
SAUS46 KLOX 211549
MTRCQT
METAR KCQT 211547Z AUTO 00000KT 10SM OVC026 21/16 A2999 RMK AO2
SLP152 T02060161





000
SAUS46 KLOX 211541
MTRLAX
SPECI KLAX 211540Z 00000KT 10SM FEW015 SCT020 BKN027 21/16 A2999 RMK
AO2





000
SAUS46 KLOX 211536
MTRMWS
METAR KMWS 211530Z 23500G00KT MM/05 RMK SNOW DEPTH  M





000
SAUS46 KLOX 211515
MTRMWS
METAR KMWS 211500Z 10001G04KT 20/M01 RMK SNOW DEPTH  M





000
SAUS46 KLOX 211456
MTR9L2
METAR K9L2 211455Z AUTO 00000KT 10SM CLR 17/08 A3000 RMK AO2 SLP144
T01720083 53018 $





000
SAUS46 KLOX 211454
MTRMWS
METAR KMWS 211445Z 12501G03KT 18/M02 RMK SNOW DEPTH  M





000
SAUS46 KLOX 211454
MTRLAX
METAR KLAX 211453Z 00000KT 10SM FEW022 BKN030 21/17 A2999 RMK AO2
SLP153 T02060167 53015





000
SAUS46 KLOX 211452
MTRSMX
METAR KSMX 211451Z 33003KT 9SM OVC011 18/14 A3001 RMK AO2 SLP162
T01780144 53015





000
SAUS46 KLOX 211449
MTRSDB
METAR KSDB 211448Z AUTO 22006KT 10SM CLR 16/07 A3010 RMK AO2 SLP148
T01610072 53012





000
SAUS46 KLOX 211448
MTRCQT
METAR KCQT 211447Z AUTO 00000KT 10SM OVC026 20/17 A2998 RMK AO2
SLP149 T02000167 53015





000
SAUS46 KLOX 211436
MTRMWS
METAR KMWS 211430Z 23500G00KT MM/M01 RMK SNOW DEPTH  M





000
SAUS46 KLOX 211435
MTRSMX
SPECI KSMX 211434Z 34003KT 7SM SCT008 OVC013 18/15 A3000 RMK AO2
T01780150





000
SAUS46 KLOX 211434
MTRLAX
SPECI KLAX 211433Z 07003KT 10SM FEW021 BKN030 20/17 A2998 RMK AO2





000
SAUS46 KLOX 211415
MTRMWS
METAR KMWS 211400Z 16502G04KT 14/M02 RMK SNOW DEPTH  M





000
SAUS46 KLOX 211355
MTR9L2
METAR K9L2 211355Z AUTO 00000KT 10SM CLR 16/08 A2997 RMK AO2 SLP136
T01560078 $





000
SAUS46 KLOX 211354
MTRMWS
METAR KMWS 211345Z 10006G07KT 15/03 RMK SNOW DEPTH  M





000
SAUS46 KLOX 211354
MTRLAX
METAR KLAX 211353Z 00000KT 10SM SCT020 OVC026 20/17 A2997 RMK AO2
SLP146 T02000172 $





000
SAUS46 KLOX 211353
MTRSMX
METAR KSMX 211351Z 31005KT 7SM OVC012 18/15 A3000 RMK AO2 SLP159
T01780150





000
SAUS46 KLOX 211349
MTRSDB
METAR KSDB 211348Z AUTO 22007KT 10SM CLR 14/09 A3008 RMK AO2 SLP142
T01440089





000
SAUS46 KLOX 211348
MTRCQT
METAR KCQT 211347Z AUTO 00000KT 10SM OVC020 20/17 A2996 RMK AO2
SLP143 T02000167





000
SAUS46 KLOX 211336
MTRMWS
METAR KMWS 211330Z 23500G00KT MM/02 RMK SNOW DEPTH  M





000
SAUS46 KLOX 211315
MTRMWS
METAR KMWS 211300Z 12504G05KT 12/01 RMK SNOW DEPTH  M





000
SAUS46 KLOX 211255
MTR9L2
METAR K9L2 211255Z AUTO 11003KT 10SM CLR 16/09 A2996 RMK AO2 SLP128
T01560089 $





000
SAUS46 KLOX 211254
MTRMWS
METAR KMWS 211245Z 21501G01KT 12/00 RMK SNOW DEPTH  M





000
SAUS46 KLOX 211254
MTRLAX
METAR KLAX 211253Z 08003KT 10SM OVC023 18/17 A2996 RMK AO2 SLP142
T01800172 $





000
SAUS46 KLOX 211253
MTRSMX
METAR KSMX 211251Z AUTO 28005KT 5SM HZ OVC011 18/15 A2997 RMK AO2
SLP149 T01780150





000
SAUS46 KLOX 211249
MTRSDB
METAR KSDB 211248Z AUTO 20008KT 10SM CLR 15/09 A3007 RMK AO2 SLP131
T01500094





000
SAUS46 KLOX 211248
MTRCQT
METAR KCQT 211247Z AUTO 00000KT 10SM OVC020 19/17 A2994 RMK AO2
SLP137 T01940167





000
SAUS46 KLOX 211215
MTRMWS
METAR KMWS 211200Z 21505G05KT 12/09 RMK SNOW DEPTH  M





000
SAUS46 KLOX 211157
MTRMWS
METAR KMWS 211145Z 21004G05KT 12/08 RMK SNOW DEPTH  M





000
SAUS46 KLOX 211156
MTR9L2
METAR K9L2 211155Z AUTO 17003KT 10SM CLR 17/10 A2994 RMK AO2 SLP120
T01720100 10233 20172 53004 $





000
SAUS46 KLOX 211154
MTRLAX
METAR KLAX 211153Z 00000KT 10SM OVC023 19/17 A2995 RMK AO2 SLP138
T01940172 55000 $





000
SAUS46 KLOX 211152
MTRSMX
METAR KSMX 211151Z AUTO 32007KT 10SM OVC011 18/14 A2996 RMK AO2
SLP147 T01780144 10189 20178 53004





000
SAUS46 KLOX 211149
MTRSDB
METAR KSDB 211148Z AUTO 21007KT 10SM CLR 15/09 A3006 RMK AO2 SLP126
T01500094 10189 20150 55004





000
SAUS46 KLOX 211148
MTRCQT
METAR KCQT 211147Z AUTO 00000KT 10SM OVC023 19/17 A2994 RMK AO2
SLP135 T01890167 10200 20183 55001





000
SAUS46 KLOX 211136
MTRMWS
METAR KMWS 211130Z 23500G00KT MM/08 RMK SNOW DEPTH  M





000
SAUS46 KLOX 211127
MTRCQT
SPECI KCQT 211126Z AUTO 00000KT 10SM BKN024 18/17 A2993 RMK AO2
T01830167





000
SAUS46 KLOX 211115
MTRMWS
METAR KMWS 211100Z 18502G03KT 12/07 RMK SNOW DEPTH  M





000
SAUS46 KLOX 211056
MTR9L2
METAR K9L2 211055Z AUTO 17008KT 10SM CLR 18/09 A2993 RMK AO2 SLP116
T01780089 $





000
SAUS46 KLOX 211056
MTRLAX
METAR KLAX 211053Z 00000KT 10SM OVC023 19/17 A2994 RMK AO2 SLP136
T01900167 $





000
SAUS46 KLOX 211054
MTRMWS
METAR KMWS 211045Z 17002G02KT 13/08 RMK SNOW DEPTH  M





000
SAUS46 KLOX 211053
MTRSMX
METAR KSMX 211051Z AUTO 31006KT 9SM OVC011 18/14 A2996 RMK AO2
SLP144 T01830144





000
SAUS46 KLOX 211049
MTRSDB
METAR KSDB 211048Z AUTO 22007KT 10SM CLR 15/10 A3006 RMK AO2 SLP124
T01500100





000
SAUS46 KLOX 211048
MTRCQT
METAR KCQT 211047Z AUTO 00000KT 10SM CLR 18/17 A2993 RMK AO2 SLP134
T01830167





000
SAUS46 KLOX 211036
MTRMWS
METAR KMWS 211030Z 23500G00KT MM/08 RMK SNOW DEPTH  M





000
SAUS46 KLOX 211026
MTRLAX
SPECI KLAX 211025Z 00000KT 10SM BKN025 19/17 A2994 RMK AO2 $





000
SAUS46 KLOX 211015
MTRMWS
METAR KMWS 211000Z 23501G02KT 12/05 RMK SNOW DEPTH  M





000
SAUS46 KLOX 210956
MTR9L2
METAR K9L2 210955Z AUTO 16005KT 10SM CLR 18/07 A2993 RMK AO2 SLP117
T01830072 $





000
SAUS46 KLOX 210954
MTRMWS
METAR KMWS 210945Z 13503G03KT 13/05 RMK SNOW DEPTH  M





000
SAUS46 KLOX 210954
MTRLAX
METAR KLAX 210953Z 29003KT 10SM SCT015 19/17 A2994 RMK AO2 SLP137
T01900167 $





000
SAUS46 KLOX 210953
MTRSMX
METAR KSMX 210951Z AUTO 00000KT 10SM OVC012 19/14 A2995 RMK AO2
SLP141 T01890144





000
SAUS46 KLOX 210949
MTRSDB
METAR KSDB 210948Z AUTO 25006KT 10SM CLR 16/09 A3006 RMK AO2 SLP125
T01610089





000
SAUS46 KLOX 210948
MTRCQT
METAR KCQT 210947Z AUTO 00000KT 10SM CLR 19/17 A2994 RMK AO2 SLP135
T01890167





000
SAUS46 KLOX 210936
MTRMWS
METAR KMWS 210930Z 23500G00KT MM/05 RMK SNOW DEPTH  M





000
SAUS46 KLOX 210915
MTRMWS
METAR KMWS 210900Z 07501G02KT 12/08 RMK SNOW DEPTH  M





000
SAUS46 KLOX 210859
MTR9L2
METAR K9L2 210855Z AUTO 22008KT 10SM CLR 21/04 A2993 RMK AO2 SLP115
T02110039 51002 $





000
SAUS46 KLOX 210855
MTRLAX
METAR KLAX 210853Z 25003KT 10SM SCT014 19/17 A2995 RMK AO2 SLP138
T01940172 50002 $





000
SAUS46 KLOX 210854
MTRMWS
METAR KMWS 210845Z 05002G04KT 13/04 RMK SNOW DEPTH  M





000
SAUS46 KLOX 210852
MTRSMX
METAR KSMX 210851Z AUTO 27003KT 10SM OVC012 19/14 A2995 RMK AO2
SLP143 T01890144 58008





000
SAUS46 KLOX 210849
MTRSDB
METAR KSDB 210848Z AUTO 24004KT 10SM CLR 16/09 A3007 RMK AO2 SLP128
T01610089 58003





000
SAUS46 KLOX 210848
MTRCQT
METAR KCQT 210847Z AUTO 00000KT 10SM CLR 19/16 A2994 RMK AO2 SLP136
T01890161 51003





000
SAUS46 KLOX 210836
MTRMWS
METAR KMWS 210830Z 23500G00KT MM/07 RMK SNOW DEPTH  M





000
SAUS46 KLOX 210815
MTRMWS
METAR KMWS 210800Z 11504G07KT 13/06 RMK SNOW DEPTH  M





000
SAUS46 KLOX 210759
MTR9L2
METAR K9L2 210755Z AUTO 23008KT 10SM CLR 22/04 A2993 RMK AO2 SLP115
T02220039 403440139 $





000
SAUS46 KLOX 210754
MTRMWS
METAR KMWS 210745Z 14004G08KT 14/07 RMK SNOW DEPTH  M





000
SAUS46 KLOX 210754
MTRLAX
METAR KLAX 210753Z 27006KT 10SM CLR 20/17 A2995 RMK AO2 SLP138
T02000172 402440189 $





000
SAUS46 KLOX 210753
MTRSMX
METAR KSMX 210751Z AUTO 00000KT 10SM OVC012 19/14 A2997 RMK AO2
SLP147 T01890144 402500172





000
SAUS46 KLOX 210749
MTRSDB
METAR KSDB 210748Z AUTO 31010KT 10SM CLR 18/11 A3008 RMK AO2 SLP126
T01780106 402830150





000
SAUS46 KLOX 210748
MTRCQT
METAR KCQT 210747Z AUTO 00000KT 10SM CLR 19/16 A2994 RMK AO2 SLP135
T01940161 402560189





000
SAUS46 KLOX 210736
MTRMWS
METAR KMWS 210730Z 23500G00KT MM/07 RMK SNOW DEPTH  M





000
SAUS46 KLOX 210715
MTRMWS
METAR KMWS 210700Z 14504G08KT 14/08 RMK SNOW DEPTH  M





000
SAUS46 KLOX 210656
MTR9L2
METAR K9L2 210655Z AUTO 24009KT 10SM CLR 23/04 A2993 RMK AO2 SLP117
T02280044 $





000
SAUS46 KLOX 210654
MTRMWS
METAR KMWS 210645Z 13003G06KT 14/09 RMK SNOW DEPTH  M





000
SAUS46 KLOX 210654
MTRLAX
METAR KLAX 210653Z 27008KT 10SM FEW014 20/18 A2994 RMK AO2 SLP137
T02000178 $





000
SAUS46 KLOX 210652
MTRSMX
METAR KSMX 210651Z AUTO 00000KT 8SM OVC014 18/15 A2997 RMK AO2
SLP148 T01830150





000
SAUS46 KLOX 210649
MTRSDB
METAR KSDB 210648Z AUTO 29007KT 10SM CLR 18/11 A3008 RMK AO2 SLP132
T01830106





000
SAUS46 KLOX 210648
MTRCQT
METAR KCQT 210647Z AUTO 00000KT 10SM CLR 19/16 A2994 RMK AO2 SLP134
T01940161





000
SAUS46 KLOX 210636
MTRMWS
METAR KMWS 210630Z 23500G00KT MM/08 RMK SNOW DEPTH  M





000
SAUS46 KLOX 210615
MTRMWS
METAR KMWS 210600Z 21502G04KT 14/06 RMK SNOW DEPTH  M





000
SAUS46 KLOX 210559
MTR9L2
METAR K9L2 210555Z AUTO 23005KT 10SM BKN080 23/06 A2992 RMK AO2
SLP116 T02280061 10322 20228 51016 $





000
SAUS46 KLOX 210554
MTRMWS
METAR KMWS 210545Z 10010G13KT 15/06 RMK SNOW DEPTH  M





000
SAUS46 KLOX 210554
MTRLAX
METAR KLAX 210553Z 26005KT 10SM FEW015 20/17 A2994 RMK AO2 SLP136
T02000172 10228 20200 51010 $





000
SAUS46 KLOX 210553
MTRSMX
METAR KSMX 210551Z AUTO 28005KT 10SM OVC012 19/14 A2998 RMK AO2
SLP151 T01890144 10222 20183 51012





000
SAUS46 KLOX 210549
MTRSDB
METAR KSDB 210548Z AUTO 21006KT 10SM CLR 16/12 A3008 RMK AO2 SLP136
T01610117 10256 20150 51013





000
SAUS46 KLOX 210548
MTRCQT
METAR KCQT 210547Z AUTO 00000KT 10SM CLR 20/16 A2993 RMK AO2 SLP132
T02000156 10244 20194 51009





000
SAUS46 KLOX 210536
MTRMWS
METAR KMWS 210530Z 23500G00KT MM/04 RMK SNOW DEPTH  M





000
SAUS46 KLOX 210515
MTRMWS
METAR KMWS 210500Z 10511G12KT 15/08 RMK SNOW DEPTH  M





000
SAUS46 KLOX 210456
MTR9L2
METAR K9L2 210455Z AUTO 22004KT 10SM FEW085 24/05 A2991 RMK AO2
SLP112 T02390050 $





000
SAUS46 KLOX 210454
MTRLAX
METAR KLAX 210453Z 27006KT 10SM FEW015 21/16 A2993 RMK AO2 SLP133
T02060161 $





000
SAUS46 KLOX 210454
MTRMWS
METAR KMWS 210445Z 11009G11KT 15/05 RMK SNOW DEPTH  M





000
SAUS46 KLOX 210453
MTRSMX
METAR KSMX 210451Z AUTO 34004KT 10SM OVC012 19/14 A2997 RMK AO2
SLP149 T01890144





000
SAUS46 KLOX 210449
MTRSDB
METAR KSDB 210448Z AUTO 22011KT 8SM CLR 16/13 A3007 RMK AO2 SLP133
T01560128





000
SAUS46 KLOX 210448
MTRCQT
METAR KCQT 210447Z AUTO 00000KT 10SM CLR 20/16 A2992 RMK AO2 SLP130
T02000156





000
SAUS46 KLOX 210436
MTRMWS
METAR KMWS 210430Z 23500G00KT MM/04 RMK SNOW DEPTH  M





000
SAUS46 KLOX 210415
MTRMWS
METAR KMWS 210400Z 15507G10KT 15/00 RMK SNOW DEPTH  M





000
SAUS46 KLOX 210355
MTR9L2
METAR K9L2 210355Z AUTO 24010KT 10SM CLR 25/07 A2989 RMK AO2 SLP106
T02500067 $





000
SAUS46 KLOX 210354
MTRMWS
METAR KMWS 210345Z 15008G12KT 16/00 RMK SNOW DEPTH  M





000
SAUS46 KLOX 210354
MTRLAX
METAR KLAX 210353Z 27007KT 10SM FEW015 21/17 A2992 RMK AO2 SLP130
T02060167 $





000
SAUS46 KLOX 210352
MTRSMX
METAR KSMX 210351Z AUTO 31006KT 10SM OVC014 19/14 A2995 RMK AO2
SLP144 T01890144





000
SAUS46 KLOX 210349
MTRSDB
METAR KSDB 210348Z AUTO 21011KT 10SM CLR 17/12 A3006 RMK AO2 SLP128
T01670122





000
SAUS46 KLOX 210348
MTRCQT
METAR KCQT 210347Z AUTO 00000KT 10SM CLR 21/16 A2992 RMK AO2 SLP128
T02060156





000
SAUS46 KLOX 210336
MTRMWS
METAR KMWS 210330Z 23500G00KT MM/M01 RMK SNOW DEPTH  M





000
SAUS46 KLOX 210315
MTRMWS
METAR KMWS 210300Z 13007G14KT 16/00 RMK SNOW DEPTH  M





000
SAUS46 KLOX 210259
MTR9L2
METAR K9L2 210255Z AUTO 24012KT 10SM CLR 26/09 A2987 RMK AO2 SLP101
T02560094 53012 $





000
SAUS46 KLOX 210254
MTRMWS
METAR KMWS 210245Z 14006G09KT 16/01 RMK SNOW DEPTH  M





000
SAUS46 KLOX 210254
MTRLAX
METAR KLAX 210253Z 28009KT 10SM FEW017 21/17 A2991 RMK AO2 SLP126
T02060167 53006 $





000
SAUS46 KLOX 210253
MTRSMX
METAR KSMX 210251Z 31007KT 10SM OVC014 19/14 A2994 RMK AO2 SLP140
T01890144 53006





000
SAUS46 KLOX 210249
MTRSDB
METAR KSDB 210248Z AUTO 21015KT 10SM CLR 18/11 A3004 RMK AO2 SLP124
T01780111 53002





000
SAUS46 KLOX 210248
MTRCQT
METAR KCQT 210247Z AUTO 28005KT 10SM CLR 21/14 A2990 RMK AO2 SLP123
T02060144 53009





000
SAUS46 KLOX 210236
MTRMWS
METAR KMWS 210230Z 23500G00KT MM/M01 RMK SNOW DEPTH  M





000
SAUS46 KLOX 210222
MTRSMX
SPECI KSMX 210220Z 31006KT 10SM BKN014 18/14 A2993 RMK AO2 T01830144





000
SAUS46 KLOX 210215
MTRMWS
METAR KMWS 210200Z 13509G12KT 17/M04 RMK SNOW DEPTH  M





000
SAUS46 KLOX 210156
MTR9L2
METAR K9L2 210155Z AUTO 25017G24KT 10SM CLR 27/09 A2986 RMK AO2
SLP096 T02720094 $





000
SAUS46 KLOX 210154
MTRLAX
METAR KLAX 210153Z 26009KT 10SM FEW015 21/15 A2990 RMK AO2 SLP124
T02110150 $





000
SAUS46 KLOX 210154
MTRMWS
METAR KMWS 210145Z 12006G10KT 18/M03 RMK SNOW DEPTH  M





000
SAUS46 KLOX 210152
MTRSMX
METAR KSMX 210151Z 30007KT 10SM SCT018 19/14 A2993 RMK AO2 SLP136
T01890144





000
SAUS46 KLOX 210150
MTRCQT
METAR KCQT 210147Z AUTO 26004KT 10SM CLR 22/16 A2989 RMK AO2 SLP118
T02170156





000
SAUS46 KLOX 210149
MTRSDB
METAR KSDB 210148Z AUTO 18015KT 10SM CLR 20/11 A3003 RMK AO2 SLP120
T02000106





000
SAUS46 KLOX 210136
MTRMWS
METAR KMWS 210130Z 23500G00KT MM/M02 RMK SNOW DEPTH  M





000
SAUS46 KLOX 210115
MTRMWS
METAR KMWS 210100Z 21004G12KT 20/01 RMK SNOW DEPTH  M





000
SAUS46 KLOX 210057
MTRMWS
METAR KMWS 210045Z 20004G10KT 20/03 RMK SNOW DEPTH  M





000
SAUS46 KLOX 210056
MTR9L2
METAR K9L2 210055Z AUTO 24019G24KT 10SM CLR 30/09 A2984 RMK AO2 PK
WND 24026/0027 SLP088 T03000089 $





000
SAUS46 KLOX 210054
MTRLAX
METAR KLAX 210053Z 26012KT 10SM FEW030 22/16 A2989 RMK AO2 SLP121
T02220161 $





000
SAUS46 KLOX 210053
MTRSMX
METAR KSMX 210051Z 30010KT 10SM SCT018 21/15 A2992 RMK AO2 SLP132
T02110150





000
SAUS46 KLOX 210049
MTRSDB
METAR KSDB 210048Z AUTO 19012KT 10SM CLR 24/08 A3003 RMK AO2 SLP117
T02390078





000
SAUS46 KLOX 210048
MTRCQT
METAR KCQT 210047Z AUTO 26005KT 10SM CLR 23/16 A2988 RMK AO2 SLP116
T02330161





000
SAUS46 KLOX 210036
MTRMWS
METAR KMWS 210030Z 23500G00KT MM/03 RMK SNOW DEPTH  M





000
SAUS46 KLOX 210015
MTRMWS
METAR KMWS 210000Z 16504G09KT 20/02 RMK SNOW DEPTH  M





000
SAUS46 KLOX 202359
MTR9L2
METAR K9L2 202355Z AUTO 25015G22KT 10SM CLR 32/08 A2983 RMK AO2
SLP084 T03220083 10344 20244 56014 $





000
SAUS46 KLOX 202355
MTRLAX
METAR KLAX 202353Z 26011KT 10SM FEW030 23/16 A2989 RMK AO2 SLP120
T02280161 10244 20211 56010 $





000
SAUS46 KLOX 202354
MTRMWS
METAR KMWS 202345Z 20505G08KT 21/06 RMK SNOW DEPTH  M





000
SAUS46 KLOX 202352
MTRSMX
METAR KSMX 202351Z 32011KT 10SM SCT019 22/15 A2992 RMK AO2 SLP132
T02220150 10250 20200 56002





000
SAUS46 KLOX 202349
MTRCQT
METAR KCQT 202347Z AUTO VRB05KT 10SM CLR 24/16 A2987 RMK AO2 SLP114
T02440161 10256 20222 56011





000
SAUS46 KLOX 202349
MTRSDB
METAR KSDB 202348Z AUTO 19014KT 10SM CLR 26/08 A3003 RMK AO2 SLP116
T02560078 10283 20239 58009





000
SAUS46 KLOX 202336
MTRMWS
METAR KMWS 202330Z 23500G00KT MM/08 RMK SNOW DEPTH  M





000
SAUS46 KLOX 202259
MTR9L2
METAR K9L2 202255Z AUTO 20011G15KT 10SM BKN085 34/05 A2984 RMK AO2
SLP083 T03390050 $





000
SAUS46 KLOX 202254
MTRMWS
METAR KMWS 202245Z 20504G07KT 22/11 RMK SNOW DEPTH  M





000
SAUS46 KLOX 202254
MTRLAX
METAR KLAX 202253Z 24011KT 10SM FEW030 24/16 A2990 RMK AO2 SLP122
T02390156 $





000
SAUS46 KLOX 202252
MTRSMX
METAR KSMX 202251Z 31013KT 10SM BKN022 23/15 A2992 RMK AO2 SLP133
T02330150





000
SAUS46 KLOX 202249
MTRSDB
METAR KSDB 202248Z AUTO 19011KT 10SM CLR 27/08 A3005 RMK AO2 SLP120
T02670083





000
SAUS46 KLOX 202249
MTRCQT
METAR KCQT 202247Z AUTO VRB03KT 10SM CLR 25/16 A2988 RMK AO2 SLP114
T02500161





000
SAUS46 KLOX 202236
MTRMWS
METAR KMWS 202230Z 23500G00KT MM/13 RMK SNOW DEPTH  M





000
SAUS46 KLOX 202215
MTRMWS
METAR KMWS 202200Z 23504G06KT 23/13 RMK SNOW DEPTH  M





000
SAUS46 KLOX 202156
MTR9L2
METAR K9L2 202155Z AUTO 11009KT 10SM SCT080 BKN100 33/07 A2986 RMK
AO2 SLP091 T03280067 $





000
SAUS46 KLOX 202154
MTRMWS
METAR KMWS 202145Z 21004G05KT 24/14 RMK SNOW DEPTH  M





000
SAUS46 KLOX 202154
MTRLAX
METAR KLAX 202153Z 26009KT 10SM FEW022 SCT031 24/16 A2991 RMK AO2
SLP125 T02390161 $





000
SAUS46 KLOX 202152
MTRSMX
METAR KSMX 202151Z AUTO 32014KT 10SM FEW020 24/15 A2992 RMK AO2
SLP132 T02390150





000
SAUS46 KLOX 202149
MTRSDB
METAR KSDB 202148Z AUTO 17012KT 10SM CLR 27/10 A3005 RMK AO2 SLP121
T02670100





000
SAUS46 KLOX 202148
MTRCQT
METAR KCQT 202147Z AUTO VRB03KT 10SM CLR 25/16 A2989 RMK AO2 SLP119
T02500161





000
SAUS46 KLOX 202136
MTRMWS
METAR KMWS 202130Z 23500G00KT MM/14 RMK SNOW DEPTH  M





000
SAUS46 KLOX 202115
MTRMWS
METAR KMWS 202100Z 20504G07KT 23/13 RMK SNOW DEPTH  M





000
SAUS46 KLOX 202056
MTR9L2
METAR K9L2 202055Z AUTO 22004KT 10SM CLR 31/06 A2988 RMK AO2 SLP098
T03110061 58026 $





000
SAUS46 KLOX 202054
MTRLAX
METAR KLAX 202053Z 27005KT 10SM FEW024 SCT034 23/16 A2992 RMK AO2
SLP130 T02280156 58015 $





000
SAUS46 KLOX 202054
MTRMWS
METAR KMWS 202045Z 21503G07KT 23/10 RMK SNOW DEPTH  M





000
SAUS46 KLOX 202053
MTRSMX
METAR KSMX 202051Z 31012KT 10SM FEW020 25/15 A2993 RMK AO2 SLP134
T02500150 58016





000
SAUS46 KLOX 202049
MTRSDB
METAR KSDB 202048Z AUTO 19011KT 10SM CLR 27/11 A3006 RMK AO2 SLP122
T02720106 58008





000
SAUS46 KLOX 202049
MTRCQT
METAR KCQT 202047Z AUTO 00000KT 10SM OVC031 24/17 A2991 RMK AO2
SLP125 T02440167 58015





000
SAUS46 KLOX 202040
MTRCQT
SPECI KCQT 202039Z AUTO VRB03KT 10SM FEW025 OVC031 24/17 A2991 RMK
AO2 T02440167





000
SAUS46 KLOX 202037
MTRCQT
SPECI KCQT 202036Z AUTO 00000KT 10SM OVC029 24/17 A2991 RMK AO2
T02440167





000
SAUS46 KLOX 202036
MTRMWS
METAR KMWS 202030Z 23500G00KT MM/11 RMK SNOW DEPTH  M





000
SAUS46 KLOX 202034
MTRCQT
SPECI KCQT 202033Z AUTO 00000KT 10SM SCT025 OVC032 24/17 A2992 RMK
AO2 T02390167





000
SAUS46 KLOX 202017
MTRLAX
SPECI KLAX 202016Z 26005KT 10SM SCT024 BKN034 23/16 A2994 RMK AO2 $





000
SAUS46 KLOX 202015
MTRMWS
METAR KMWS 202000Z 25002G03KT 26/10 RMK SNOW DEPTH  M





000
SAUS46 KLOX 201956
MTR9L2
METAR K9L2 201955Z AUTO 19005KT 10SM CLR 30/08 A2991 RMK AO2 SLP109
T03000078 $





000
SAUS46 KLOX 201956
MTRLAX
METAR KLAX 201953Z COR 27009KT 10SM FEW018 SCT023 OVC026 22/16 A2995
RMK AO2 SLP141 T02170156 $





000
SAUS46 KLOX 201954
MTRMWS
METAR KMWS 201945Z 32002G04KT 25/09 RMK SNOW DEPTH  M





000
SAUS46 KLOX 201954
MTRLAX
METAR KLAX 201953Z 27009KT 10SM FEW018 SCT023 OVC026 22/16 A2995 RMK
AO2 T02170156 $





000
SAUS46 KLOX 201952
MTRSMX
METAR KSMX 201951Z 30010KT 10SM FEW013 24/16 A2994 RMK AO2 SLP140
T02390156





000
SAUS46 KLOX 201949
MTRSDB
METAR KSDB 201948Z AUTO 18012G24KT 10SM SCT060 28/09 A3008 RMK AO2
SLP126 T02830094





000
SAUS46 KLOX 201948
MTRCQT
METAR KCQT 201947Z AUTO 26003KT 10SM OVC027 23/17 A2993 RMK AO2
SLP133 T02330167





000
SAUS46 KLOX 201936
MTRMWS
METAR KMWS 201930Z 23500G00KT MM/09 RMK SNOW DEPTH  M





000
SAUS46 KLOX 201915
MTRMWS
METAR KMWS 201900Z 03501G03KT 23/07 RMK SNOW DEPTH  M





000
SAUS46 KLOX 201859
MTR9L2
METAR K9L2 201855Z AUTO 00000KT 10SM CLR 27/09 A2994 RMK AO2 SLP121
T02720094 $





000
SAUS46 KLOX 201854
MTRLAX
METAR KLAX 201853Z 29009KT 10SM FEW017 SCT022 OVC026 21/17 A2996 RMK
AO2 SLP143 T02110167 $





000
SAUS46 KLOX 201854
MTRMWS
METAR KMWS 201845Z 16003G08KT 23/06 RMK SNOW DEPTH  M





000
SAUS46 KLOX 201852
MTRSMX
METAR KSMX 201851Z 28007KT 250V340 10SM FEW013 23/15 A2996 RMK AO2
SLP146 T02330150





000
SAUS46 KLOX 201849
MTRSDB
METAR KSDB 201848Z AUTO 10SM FEW060 24/08 A3009 RMK AO2 SLP136
T02440083





000
SAUS46 KLOX 201848
MTRCQT
METAR KCQT 201847Z AUTO 27003KT 10SM OVC027 23/17 A2995 RMK AO2
SLP138 T02280167





000
SAUS46 KLOX 201836
MTRMWS
METAR KMWS 201830Z 23500G00KT MM/08 RMK SNOW DEPTH  M





000
SAUS46 KLOX 201815
MTRMWS
METAR KMWS 201800Z 21001G05KT 24/09 RMK SNOW DEPTH  M





000
SAUS46 KLOX 201756
MTR9L2
METAR K9L2 201755Z AUTO 12004KT 10SM CLR 24/10 A2996 RMK AO2 SLP128
T02440100 10244 20139 58001 $





000
SAUS46 KLOX 201754
MTRMWS
METAR KMWS 201745Z 12001G03KT 22/10 RMK SNOW DEPTH  M





000
SAUS46 KLOX 201754
MTRLAX
METAR KLAX 201753Z 25005KT 10SM BKN022 OVC026 22/16 A2997 RMK AO2
SLP145 T02170161 10217 20189 51010 $





000
SAUS46 KLOX 201753
MTRSMX
METAR KSMX 201751Z 00000KT 10SM BKN010 20/15 A2998 RMK AO2 SLP150
T02000150 10200 20172 50010





000
SAUS46 KLOX 201749
MTRSDB
METAR KSDB 201748Z AUTO 19005KT 10SM CLR 24/09 A3009 RMK AO2 SLP136
T02390089 10239 20161 51007





000
SAUS46 KLOX 201748
MTRCQT
METAR KCQT 201747Z AUTO 00000KT 10SM OVC024 23/17 A2995 RMK AO2
SLP140 T02280167 10228 20189 51009





000
SAUS46 KLOX 201736
MTRMWS
METAR KMWS 201730Z 23500G00KT MM/10 RMK SNOW DEPTH  M





000
SAUS46 KLOX 201715
MTRMWS
METAR KMWS 201700Z 36004G06KT 21/11 RMK SNOW DEPTH  M





000
SAUS46 KLOX 201655
MTR9L2
METAR K9L2 201655Z AUTO 11003KT 10SM CLR 22/10 A2997 RMK AO2 SLP133
T02170100 $





000
SAUS46 KLOX 201654
MTRMWS
METAR KMWS 201645Z 13502G05KT 21/08 RMK SNOW DEPTH  M





000
SAUS46 KLOX 201654
MTRLAX
METAR KLAX 201653Z 00000KT 9SM SCT020 OVC024 22/16 A2996 RMK AO2
SLP143 T02170161 $





000
SAUS46 KLOX 201653
MTRSMX
METAR KSMX 201651Z 18004KT 9SM BR OVC009 19/15 A2998 RMK AO2 SLP151
T01890150





000
SAUS46 KLOX 201649
MTRSDB
METAR KSDB 201648Z AUTO VRB05KT 10SM CLR 23/08 A3008 RMK AO2 SLP135
T02280083





000
SAUS46 KLOX 201648
MTRCQT
METAR KCQT 201647Z AUTO 00000KT 10SM OVC021 22/16 A2995 RMK AO2
SLP139 T02170161





000
SAUS46 KLOX 201636
MTRMWS
METAR KMWS 201630Z 23500G00KT MM/07 RMK SNOW DEPTH  M





000
SAUS46 KLOX 201615
MTRMWS
METAR KMWS 201600Z 08005G10KT 20/05 RMK SNOW DEPTH  M





000
SAUS46 KLOX 201558
MTR9L2
METAR K9L2 201555Z AUTO 00000KT 10SM CLR 20/10 A2997 RMK AO2 SLP135
T02000100 $





000
SAUS46 KLOX 201554
MTRMWS
METAR KMWS 201545Z 11501G05KT 21/05 RMK SNOW DEPTH  M





000
SAUS46 KLOX 201554
MTRLAX
METAR KLAX 201553Z 00000KT 10SM OVC022 21/17 A2995 RMK AO2 SLP138
T02110167 $





000
SAUS46 KLOX 201552
MTRSMX
METAR KSMX 201551Z 00000KT 5SM BR OVC008 18/15 A2996 RMK AO2 SLP147
T01780150





000
SAUS46 KLOX 201549
MTRSDB
METAR KSDB 201548Z AUTO VRB03KT 10SM CLR 22/06 A3007 RMK AO2 SLP133
T02170061





000
SAUS46 KLOX 201548
MTRCQT
METAR KCQT 201547Z AUTO 00000KT 10SM OVC019 21/16 A2994 RMK AO2
SLP135 T02110161





000
SAUS46 KLOX 201536
MTRMWS
METAR KMWS 201530Z 23500G00KT MM/03 RMK SNOW DEPTH  M





000
SAUS46 KLOX 201516
MTRMWS
METAR KMWS 201500Z 12002G04KT 18/03 RMK SNOW DEPTH  M





000
SAUS46 KLOX 201455
MTR9L2
METAR K9L2 201455Z AUTO 00000KT 10SM CLR 18/09 A2996 RMK AO2 SLP132
T01780094 53015 $





000
SAUS46 KLOX 201454
MTRMWS
METAR KMWS 201445Z 11005G08KT 17/02 RMK SNOW DEPTH  M





000
SAUS46 KLOX 201454
MTRLAX
METAR KLAX 201453Z 00000KT 10SM OVC019 21/17 A2994 RMK AO2 SLP135
T02060167 53012 $





000
SAUS46 KLOX 201453
MTRSMX
METAR KSMX 201451Z 15003KT 3SM BR OVC005 18/15 A2995 RMK AO2 SFC VIS
8 SLP141 T01780150 53016





000
SAUS46 KLOX 201449
MTRSDB
METAR KSDB 201448Z AUTO 22003KT 10SM CLR 18/09 A3006 RMK AO2 SLP133
T01830089 53009





000
SAUS46 KLOX 201448
MTRCQT
METAR KCQT 201447Z AUTO VRB03KT 10SM OVC017 21/16 A2993 RMK AO2
SLP131 T02110161 53012





000
SAUS46 KLOX 201436
MTRMWS
METAR KMWS 201430Z 23500G00KT MM/03 RMK SNOW DEPTH  M





000
SAUS46 KLOX 201415
MTRMWS
METAR KMWS 201400Z 10006G09KT 16/02 RMK SNOW DEPTH  M





000
SAUS46 KLOX 201356
MTR9L2
METAR K9L2 201355Z AUTO 00000KT 10SM CLR 14/08 A2995 RMK AO2 SLP127
T01390083 $





000
SAUS46 KLOX 201354
MTRLAX
METAR KLAX 201353Z 09004KT 10SM OVC018 21/17 A2992 RMK AO2 SLP128
T02060167 $





000
SAUS46 KLOX 201354
MTRMWS
METAR KMWS 201345Z 10009G11KT 15/01 RMK SNOW DEPTH  M





000
SAUS46 KLOX 201353
MTRSMX
METAR KSMX 201351Z 00000KT 3SM BR OVC005 18/15 A2993 RMK AO2 SFC VIS
7 SLP134 T01780150





000
SAUS46 KLOX 201349
MTRSDB
METAR KSDB 201348Z AUTO 20006KT 10SM CLR 17/09 A3005 RMK AO2 SLP126
T01720089





000
SAUS46 KLOX 201348
MTRCQT
METAR KCQT 201347Z AUTO 00000KT 10SM OVC016 21/17 A2991 RMK AO2
SLP125 T02060167





000
SAUS46 KLOX 201336
MTRMWS
METAR KMWS 201330Z 23500G00KT MM/06 RMK SNOW DEPTH  M





000
SAUS46 KLOX 201315
MTRMWS
METAR KMWS 201300Z 08008G12KT 15/07 RMK SNOW DEPTH  M





000
SAUS46 KLOX 201256
MTR9L2
METAR K9L2 201255Z AUTO 00000KT 10SM CLR 16/09 A2993 RMK AO2 SLP118
T01560089 $





000
SAUS46 KLOX 201254
MTRMWS
METAR KMWS 201245Z 07507G11KT 15/07 RMK SNOW DEPTH  M





000
SAUS46 KLOX 201254
MTRLAX
METAR KLAX 201253Z 09003KT 10SM OVC018 20/17 A2991 RMK AO2 SLP125
T02000167 $





000
SAUS46 KLOX 201252
MTRSMX
METAR KSMX 201251Z 00000KT 3SM BR OVC005 18/15 A2991 RMK AO2 SLP128
T01780150





000
SAUS46 KLOX 201249
MTRSDB
METAR KSDB 201248Z AUTO 20007KT 10SM CLR 17/08 A3004 RMK AO2 SLP121
T01670083





000
SAUS46 KLOX 201248
MTRCQT
METAR KCQT 201247Z AUTO 00000KT 10SM OVC020 19/17 A2990 RMK AO2
SLP123 T01890167





000
SAUS46 KLOX 201236
MTRMWS
METAR KMWS 201230Z 23500G00KT MM/07 RMK SNOW DEPTH  M





000
SAUS46 KLOX 201230
MTRCQT
SPECI KCQT 201229Z AUTO 00000KT 10SM BKN020 19/16 A2990 RMK AO2
T01890161





000
SAUS46 KLOX 201215
MTRMWS
METAR KMWS 201200Z 10009G11KT 15/07 RMK SNOW DEPTH  M





000
SAUS46 KLOX 201212
MTRSMX
SPECI KSMX 201211Z AUTO 33003KT 7SM OVC005 17/15 A2990 RMK AO2
T01720150





000
SAUS46 KLOX 201203
MTRLAX
SPECI KLAX 201202Z 00000KT 10SM BKN018 19/17 A2990 RMK AO2 $





000
SAUS46 KLOX 201157
MTRMWS
METAR KMWS 201145Z 10009G12KT 15/07 RMK SNOW DEPTH  M





000
SAUS46 KLOX 201155
MTRLAX
METAR KLAX 201153Z 00000KT 10SM SCT018 19/17 A2990 RMK AO2 SLP123
T01890167 53000 $





000
SAUS46 KLOX 201155
MTR9L2
METAR K9L2 201155Z AUTO 21005KT 10SM CLR 16/10 A2991 RMK AO2 SLP114
T01610100 10228 20161 55001 $





000
SAUS46 KLOX 201152
MTRSMX
METAR KSMX 201151Z AUTO 00000KT 5SM BR OVC004 17/15 A2990 RMK AO2
SLP125 T01720150 10189 20172 55001





000
SAUS46 KLOX 201149
MTRSDB
METAR KSDB 201148Z AUTO 23008KT 10SM CLR 17/08 A3003 RMK AO2 SLP116
T01670083 10178 20161 55004





000
SAUS46 KLOX 201148
MTRCQT
METAR KCQT 201147Z AUTO 00000KT 10SM CLR 19/16 A2989 RMK AO2 SLP120
T01890161 10200 20189 55001





000
SAUS46 KLOX 201136
MTRMWS
METAR KMWS 201130Z 23500G00KT MM/05 RMK SNOW DEPTH  M





000
SAUS46 KLOX 201115
MTRMWS
METAR KMWS 201100Z 10507G08KT 13/02 RMK SNOW DEPTH  M





000
SAUS46 KLOX 201106
MTRSMX
SPECI KSMX 201104Z AUTO 00000KT 6SM BR OVC004 17/15 A2990 RMK AO2
T01720150





000
SAUS46 KLOX 201056
MTR9L2
METAR K9L2 201055Z AUTO 19006KT 10SM CLR 18/11 A2991 RMK AO2 SLP111
T01780106 $





000
SAUS46 KLOX 201054
MTRLAX
METAR KLAX 201053Z 00000KT 10SM SCT019 19/17 A2989 RMK AO2 SLP120
T01940167 $





000
SAUS46 KLOX 201054
MTRMWS
METAR KMWS 201045Z 13007G08KT 14/06 RMK SNOW DEPTH  M





000
SAUS46 KLOX 201052
MTRSMX
METAR KSMX 201051Z AUTO 00000KT 4SM BR OVC005 17/15 A2990 RMK AO2
SLP123 T01720150





000
SAUS46 KLOX 201050
MTRSMX
SPECI KSMX 201049Z AUTO 00000KT 4SM BR OVC005 17/16 A2989 RMK AO2





000
SAUS46 KLOX 201049
MTRSDB
METAR KSDB 201048Z AUTO 21009KT 10SM CLR 17/08 A3003 RMK AO2 SLP114
T01670083





000
SAUS46 KLOX 201048
MTRCQT
METAR KCQT 201047Z AUTO 00000KT 10SM CLR 19/17 A2989 RMK AO2 SLP117
T01940167





000
SAUS46 KLOX 201036
MTRMWS
METAR KMWS 201030Z 23500G00KT MM/04 RMK SNOW DEPTH  M





000
SAUS46 KLOX 201015
MTRMWS
METAR KMWS 201000Z 12010G10KT 15/07 RMK SNOW DEPTH  M





000
SAUS46 KLOX 200955
MTR9L2
METAR K9L2 200955Z AUTO 18007KT 10SM CLR 18/11 A2991 RMK AO2 SLP110
T01830106 $





000
SAUS46 KLOX 200954
MTRMWS
METAR KMWS 200945Z 13009G10KT 15/06 RMK SNOW DEPTH  M





000
SAUS46 KLOX 200954
MTRLAX
METAR KLAX 200953Z 00000KT 10SM SCT020 19/17 A2990 RMK AO2 SLP121
T01900172 $





000
SAUS46 KLOX 200953
MTRSMX
METAR KSMX 200951Z AUTO 27005KT 4SM BR OVC004 17/15 A2990 RMK AO2
SLP126 T01720150





000
SAUS46 KLOX 200949
MTRSDB
METAR KSDB 200948Z AUTO 22009KT 10SM CLR 17/09 A3004 RMK AO2 SLP116
T01670094





000
SAUS46 KLOX 200948
MTRCQT
METAR KCQT 200947Z AUTO 00000KT 10SM CLR 19/17 A2989 RMK AO2 SLP119
T01940167





000
SAUS46 KLOX 200936
MTRMWS
METAR KMWS 200930Z 23500G00KT MM/05 RMK SNOW DEPTH  M





000
SAUS46 KLOX 200915
MTRMWS
METAR KMWS 200900Z 16009G12KT 13/02 RMK SNOW DEPTH  M





000
SAUS46 KLOX 200856
MTR9L2
METAR K9L2 200855Z AUTO 18006KT 10SM CLR 19/11 A2992 RMK AO2 SLP112
T01940111 53007 $





000
SAUS46 KLOX 200855
MTRLAX
METAR KLAX 200853Z 14003KT 10SM CLR 19/17 A2990 RMK AO2 SLP122
T01900167 51005 $





000
SAUS46 KLOX 200854
MTRMWS
METAR KMWS 200845Z 16506G07KT 13/04 RMK SNOW DEPTH  M





000
SAUS46 KLOX 200852
MTRSMX
METAR KSMX 200851Z AUTO 29005KT 7SM OVC004 18/16 A2991 RMK AO2
SLP127 T01780156 58003





000
SAUS46 KLOX 200849
MTRSDB
METAR KSDB 200848Z AUTO 23010KT 10SM CLR 18/09 A3005 RMK AO2 SLP118
T01780094 57000





000
SAUS46 KLOX 200848
MTRCQT
METAR KCQT 200847Z AUTO 00000KT 10SM CLR 19/17 A2989 RMK AO2 SLP120
T01940167 52005





000
SAUS46 KLOX 200815
MTRMWS
METAR KMWS 200800Z 13508G10KT 13/06 RMK SNOW DEPTH  M





000
SAUS46 KLOX 200755
MTR9L2
METAR K9L2 200755Z AUTO VRB03KT 10SM CLR 22/11 A2990 RMK AO2 SLP107
T02220106 403110172 $





000
SAUS46 KLOX 200754
MTRMWS
METAR KMWS 200745Z 12508G10KT 14/08 RMK SNOW DEPTH  M





000
SAUS46 KLOX 200754
MTRLAX
METAR KLAX 200753Z 19003KT 10SM CLR A2990 RMK AO2 SLPNO 402500194 $





000
SAUS46 KLOX 200752
MTRSMX
METAR KSMX 200751Z AUTO 31005KT 7SM OVC005 18/16 A2991 RMK AO2
SLP129 T01780156 402720167





000
SAUS46 KLOX 200749
MTRCQT
METAR KCQT 200747Z AUTO 00000KT 10SM CLR 20/17 A2989 RMK AO2 SLP118
T02000167 402780194





000
SAUS46 KLOX 200749
MTRSDB
METAR KSDB 200748Z AUTO 24010KT 10SM CLR 17/11 A3005 RMK AO2 SLP121
T01720111 402720133





000
SAUS46 KLOX 200736
MTRMWS
METAR KMWS 200730Z 23500G00KT MM/11 RMK SNOW DEPTH  M





000
SAUS46 KLOX 200715
MTRMWS
METAR KMWS 200700Z 09508G10KT 14/11 RMK SNOW DEPTH  M





000
SAUS46 KLOX 200706
MTRSMX
SPECI KSMX 200705Z AUTO 00000KT 7SM BKN007 OVC012 18/16 A2992 RMK
AO2 CIG 005V009 T01780156





000
SAUS46 KLOX 200656
MTR9L2
METAR K9L2 200655Z AUTO 00000KT 10SM CLR 22/11 A2990 RMK AO2 SLP107
T02170111 $





000
SAUS46 KLOX 200654
MTRMWS
METAR KMWS 200645Z 10007G09KT 13/11 RMK SNOW DEPTH  M





000
SAUS46 KLOX 200654
MTRLAX
METAR KLAX 200653Z 25004KT 10SM SCT010 20/17 A2990 RMK AO2 SLP121
T02000172 $





000
SAUS46 KLOX 200653
MTRSMX
METAR KSMX 200651Z AUTO 30004KT 7SM OVC012 18/15 A2991 RMK AO2
SLP130 T01780150





000
SAUS46 KLOX 200649
MTRSDB
METAR KSDB 200648Z AUTO 27009KT 10SM CLR 17/11 A3005 RMK AO2 SLP121
T01720111





000
SAUS46 KLOX 200648
MTRCQT
METAR KCQT 200647Z AUTO 00000KT 10SM CLR 19/16 A2989 RMK AO2 SLP118
T01940161





000
SAUS46 KLOX 200636
MTRMWS
METAR KMWS 200630Z 23500G00KT MM/11 RMK SNOW DEPTH  M





000
SAUS46 KLOX 200615
MTRMWS
METAR KMWS 200600Z 12010G13KT 13/11 RMK SNOW DEPTH  M





000
SAUS46 KLOX 200559
MTR9L2
METAR K9L2 200555Z AUTO 25008KT 10SM CLR 23/11 A2989 RMK AO2 SLP106
T02280111 10306 20228 51014 $





000
SAUS46 KLOX 200554
MTRMWS
METAR KMWS 200545Z 13508G12KT 13/10 RMK SNOW DEPTH  M





000
SAUS46 KLOX 200554
MTRLAX
METAR KLAX 200553Z 25005KT 10SM SCT010 20/17 A2989 RMK AO2 SLP118
T02000172 10228 20200 51010 $





000
SAUS46 KLOX 200552
MTRSMX
METAR KSMX 200551Z AUTO 30006KT 8SM OVC010 19/16 A2991 RMK AO2
SLP130 T01890156 10239 20189 50007





000
SAUS46 KLOX 200549
MTRSDB
METAR KSDB 200548Z AUTO 32009KT 10SM CLR 18/11 A3005 RMK AO2 SLP124
T01780111 10244 20172 51008





000
SAUS46 KLOX 200548
MTRCQT
METAR KCQT 200547Z AUTO 00000KT 10SM CLR 20/17 A2988 RMK AO2 SLP115
T02000167 10239 20200 51012





000
SAUS46 KLOX 200536
MTRMWS
METAR KMWS 200530Z 23500G00KT MM/10 RMK SNOW DEPTH  M





000
SAUS46 KLOX 200525
MTRSMX
SPECI KSMX 200524Z AUTO 30006KT 9SM OVC009 19/16 A2992 RMK AO2
T01940156





000
SAUS46 KLOX 200515
MTRMWS
METAR KMWS 200500Z 10509G10KT 15/08 RMK SNOW DEPTH  M





000
SAUS46 KLOX 200455
MTR9L2
METAR K9L2 200455Z AUTO 25010KT 10SM CLR 23/11 A2988 RMK AO2 SLP101
T02330106 $





000
SAUS46 KLOX 200454
MTRMWS
METAR KMWS 200445Z 08506G09KT 15/07 RMK SNOW DEPTH  M





000
SAUS46 KLOX 200454
MTRLAX
METAR KLAX 200453Z 26008KT 10SM FEW010 21/17 A2988 RMK AO2 SLP117
T02060172





000
SAUS46 KLOX 200452
MTRSMX
METAR KSMX 200451Z AUTO 32005KT 9SM OVC011 19/16 A2992 RMK AO2
SLP131 T01940156





000
SAUS46 KLOX 200450
MTRSDB
METAR KSDB 200448Z AUTO 31008KT 10SM CLR 18/11 A3004 RMK AO2 SLP125
T01780111





000
SAUS46 KLOX 200448
MTRCQT
METAR KCQT 200447Z AUTO 00000KT 10SM CLR 21/17 A2987 RMK AO2 SLP113
T02060167





000
SAUS46 KLOX 200436
MTRMWS
METAR KMWS 200430Z 23500G00KT MM/07 RMK SNOW DEPTH  M





000
SAUS46 KLOX 200415
MTRMWS
METAR KMWS 200400Z 15007G11KT 15/08 RMK SNOW DEPTH  M





000
SAUS46 KLOX 200357
MTRMWS
METAR KMWS 200345Z 15507G10KT 15/07 RMK SNOW DEPTH  M





000
SAUS46 KLOX 200356
MTR9L2
METAR K9L2 200355Z AUTO 24011KT 10SM CLR 23/12 A2987 RMK AO2 SLP098
T02330122 $





000
SAUS46 KLOX 200354
MTRLAX
METAR KLAX 200353Z 27008KT 10SM CLR 20/17 A2988 RMK AO2 SLP114
T02000167





000
SAUS46 KLOX 200352
MTRSMX
METAR KSMX 200351Z AUTO 30006KT 9SM OVC011 19/16 A2991 RMK AO2
SLP128 T01940156





000
SAUS46 KLOX 200349
MTRSDB
METAR KSDB 200348Z AUTO 29006KT 10SM CLR 17/12 A3004 RMK AO2 SLP126
T01720117





000
SAUS46 KLOX 200348
MTRCQT
METAR KCQT 200347Z AUTO 26003KT 10SM CLR 21/16 A2986 RMK AO2 SLP110
T02110161





000
SAUS46 KLOX 200336
MTRMWS
METAR KMWS 200330Z 23500G00KT MM/06 RMK SNOW DEPTH  M





000
SAUS46 KLOX 200336
MTRMWS
METAR KMWS 200330Z 23500G00KT MM/06 RMK SNOW DEPTH  M





000
SAUS46 KLOX 200315
MTRMWS
METAR KMWS 200300Z 16008G12KT 16/03 RMK SNOW DEPTH  M





000
SAUS46 KLOX 200256
MTR9L2
METAR K9L2 200255Z AUTO 23009KT 10SM CLR 26/11 A2985 RMK AO2 SLP092
T02560111 53005 $





000
SAUS46 KLOX 200254
MTRMWS
METAR KMWS 200245Z 16008G13KT 15/02 RMK SNOW DEPTH  M





000
SAUS46 KLOX 200254
MTRLAX
METAR KLAX 200253Z 25006KT 10SM CLR 21/16 A2985 RMK AO2 SLP107
T02060161 53003





000
SAUS46 KLOX 200253
MTRSMX
METAR KSMX 200251Z 31006KT 9SM BKN012 19/16 A2989 RMK AO2 SLP123
T01940161 51006





000
SAUS46 KLOX 200249
MTRSDB
METAR KSDB 200248Z AUTO 22008KT 10SM CLR 18/12 A3002 RMK AO2 SLP122
T01780122 53009





000
SAUS46 KLOX 200248
MTRCQT
METAR KCQT 200247Z AUTO 00000KT 10SM CLR 22/16 A2984 RMK AO2 SLP103
T02170161 53004





000
SAUS46 KLOX 200244
MTRSMX
SPECI KSMX 200243Z 31005KT 9SM BKN013 19/16 A2990 RMK AO2 T01940156





000
SAUS46 KLOX 200236
MTRMWS
METAR KMWS 200230Z 23500G00KT MM/02 RMK SNOW DEPTH  M





000
SAUS46 KLOX 200215
MTRMWS
METAR KMWS 200200Z 12008G11KT 17/05 RMK SNOW DEPTH  M





000
SAUS46 KLOX 200156
MTR9L2
METAR K9L2 200155Z AUTO 00000KT 10SM CLR 29/03 A2983 RMK AO2 SLP085
T02890028 $





000
SAUS46 KLOX 200155
MTRLAX
METAR KLAX 200153Z 25010KT 10SM FEW015 22/16 A2985 RMK AO2 SLP105
T02170161





000
SAUS46 KLOX 200154
MTRMWS
METAR KMWS 200145Z 10005G07KT 18/03 RMK SNOW DEPTH  M





000
SAUS46 KLOX 200152
MTRSMX
METAR KSMX 200151Z 31009KT 9SM SCT020 21/15 A2989 RMK AO2 SLP121
T02060150





000
SAUS46 KLOX 200149
MTRSDB
METAR KSDB 200148Z AUTO 21011KT 10SM CLR 19/12 A3001 RMK AO2 SLP117
T01940122





000
SAUS46 KLOX 200149
MTRCQT
METAR KCQT 200147Z AUTO VRB03KT 10SM CLR 22/16 A2984 RMK AO2 SLP100
T02220156





000
SAUS46 KLOX 200136
MTRMWS
METAR KMWS 200130Z 23500G00KT MM/06 RMK SNOW DEPTH  M





000
SAUS46 KLOX 200115
MTRMWS
METAR KMWS 200100Z 09503G05KT 18/08 RMK SNOW DEPTH  M





000
SAUS46 KLOX 200056
MTR9L2
METAR K9L2 200055Z AUTO 00000KT 10SM CLR 30/03 A2983 RMK AO2 SLP083
T03000028 $





000
SAUS46 KLOX 200054
MTRMWS
METAR KMWS 200045Z 07006G09KT 18/08 RMK SNOW DEPTH  M





000
SAUS46 KLOX 200054
MTRLAX
METAR KLAX 200053Z 27011KT 10SM FEW015 22/16 A2985 RMK AO2 SLP104
T02170161





000
SAUS46 KLOX 200052
MTRSMX
METAR KSMX 200051Z 32011KT 10SM SCT020 22/15 A2989 RMK AO2 SLP120
T02220150





000
SAUS46 KLOX 200049
MTRSDB
METAR KSDB 200048Z AUTO 21011KT 10SM CLR 22/12 A3000 RMK AO2 SLP110
T02220117





000
SAUS46 KLOX 200048
MTRCQT
METAR KCQT 200047Z AUTO VRB04KT 10SM CLR 23/16 A2983 RMK AO2 SLP100
T02330156





000
SAUS46 KLOX 200036
MTRMWS
METAR KMWS 200030Z 23500G00KT MM/11 RMK SNOW DEPTH  M





000
SAUS46 KLOX 200015
MTRMWS
METAR KMWS 200000Z 04001G05KT 21/08 RMK SNOW DEPTH  M





000
SAUS46 KLOX 192356
MTR9L2
METAR K9L2 192355Z AUTO 23004KT 10SM CLR 30/03 A2983 RMK AO2 SLP085
T03000033 10311 20239 56012 $





000
SAUS46 KLOX 192355
MTRLAX
METAR KLAX 192353Z 27014KT 10SM FEW015 SCT040 23/16 A2984 RMK AO2
SLP104 T02280161 10250 20228 56009





000
SAUS46 KLOX 192354
MTRMWS
METAR KMWS 192345Z 20002G04KT 21/13 RMK SNOW DEPTH  M





000
SAUS46 KLOX 192352
MTRSMX
METAR KSMX 192351Z 31012KT 10SM FEW020 24/14 A2988 RMK AO2 SLP116
T02440144 10272 20239 55001





000
SAUS46 KLOX 192349
MTRSDB
METAR KSDB 192348Z AUTO 19013G18KT 10SM CLR 25/11 A2999 RMK AO2
SLP103 T02500111 10272 20211 56006





000
SAUS46 KLOX 192349
MTRCQT
METAR KCQT 192347Z AUTO VRB04KT 10SM CLR 24/16 A2983 RMK AO2 SLP099
T02390156 10278 20239 55007





000
SAUS46 KLOX 192336
MTRMWS
METAR KMWS 192330Z 23500G00KT MM/09 RMK SNOW DEPTH  M





000
SAUS46 KLOX 192315
MTRMWS
METAR KMWS 192300Z 08003G12KT 21/10 RMK SNOW DEPTH  M





000
SAUS46 KLOX 192256
MTR9L2
METAR K9L2 192255Z AUTO 00000KT 10SM CLR 30/03 A2984 RMK AO2 SLP087
T03000028 $





000
SAUS46 KLOX 192254
MTRMWS
METAR KMWS 192245Z 19003G05KT 21/14 RMK SNOW DEPTH  M





000
SAUS46 KLOX 192254
MTRLAX
METAR KLAX 192253Z 26011G17KT 10SM FEW040 23/16 A2985 RMK AO2 SLP106
T02280156





000
SAUS46 KLOX 192252
MTRSMX
METAR KSMX 192251Z 31014KT 10SM FEW020 24/14 A2987 RMK AO2 SLP115
T02440144





000
SAUS46 KLOX 192249
MTRSDB
METAR KSDB 192248Z AUTO 18013KT 150V220 10SM CLR 26/11 A2999 RMK AO2
SLP103 T02560111





000
SAUS46 KLOX 192248
MTRCQT
METAR KCQT 192247Z AUTO VRB04KT 10SM CLR 26/16 A2983 RMK AO2 SLP098
T02560161





000
SAUS46 KLOX 192236
MTRMWS
METAR KMWS 192230Z 23500G00KT MM/13 RMK SNOW DEPTH  M





000
SAUS46 KLOX 192215
MTRMWS
METAR KMWS 192200Z 24004G08KT 22/14 RMK SNOW DEPTH  M





000
SAUS46 KLOX 192158
MTR9L2
METAR K9L2 192155Z AUTO 17006KT 10SM CLR 30/05 A2985 RMK AO2 SLP090
T03000050 $





000
SAUS46 KLOX 192154
MTRMWS
METAR KMWS 192145Z 20503G05KT 21/14 RMK SNOW DEPTH  M





000
SAUS46 KLOX 192154
MTRLAX
METAR KLAX 192153Z 26011KT 10SM FEW025 SCT040 SCT080 23/16 A2985 RMK
AO2 SLP107 T02330156





000
SAUS46 KLOX 192152
MTRSMX
METAR KSMX 192151Z AUTO 31013KT 10SM FEW040 25/15 A2987 RMK AO2
WSHFT 2116 SLP114 T02500150





000
SAUS46 KLOX 192149
MTRSDB
METAR KSDB 192148Z AUTO 17009G16KT 10SM CLR 26/12 A3000 RMK AO2
SLP105 T02610117





000
SAUS46 KLOX 192148
MTRCQT
METAR KCQT 192147Z AUTO 28006KT 10SM CLR 25/16 A2984 RMK AO2 SLP101
T02500161





000
SAUS46 KLOX 192138
MTRSMX
SPECI KSMX 192136Z 32014KT 10SM CLR 25/16 A2987 RMK AO2 WSHFT 2116
T02500156





000
SAUS46 KLOX 192136
MTRMWS
METAR KMWS 192130Z 23500G00KT MM/13 RMK SNOW DEPTH  M





000
SAUS46 KLOX 192115
MTRMWS
METAR KMWS 192100Z 22503G06KT 18/13 RMK SNOW DEPTH  M





000
SAUS46 KLOX 192057
MTRMWS
METAR KMWS 192045Z 26501G05KT 17/12 RMK SNOW DEPTH  M





000
SAUS46 KLOX 192055
MTR9L2
METAR K9L2 192055Z AUTO 14005KT 10SM CLR 29/06 A2987 RMK AO2 SLP097
T02890061 58012 $





000
SAUS46 KLOX 192054
MTRLAX
METAR KLAX 192053Z 25011KT 10SM FEW019 SCT035 SCT080 24/16 A2987 RMK
AO2 SLP114 T02390161 58012





000
SAUS46 KLOX 192053
MTRSMX
METAR KSMX 192051Z 24010KT 10SM CLR 26/15 A2988 RMK AO2 SLP118
T02560150 56009





000
SAUS46 KLOX 192049 COR
MTRCQT
METAR KCQT 192047Z AUTO VRB05KT 10SM CLR 26/17 A2985 RMK AO2 SLP105
T02610167 58015





000
SAUS46 KLOX 192049
MTRSDB
METAR KSDB 192048Z AUTO 16010G16KT 10SM FEW050 26/11 A3001 RMK AO2
SLP108 T02610111 58008





000
SAUS46 KLOX 192036
MTRMWS
METAR KMWS 192030Z 23500G00KT MM/13 RMK SNOW DEPTH  M





000
SAUS46 KLOX 192015
MTRMWS
METAR KMWS 192000Z 25501G03KT 20/15 RMK SNOW DEPTH  M





000
SAUS46 KLOX 191958
MTR9L2
METAR K9L2 191955Z AUTO VRB05KT 10SM CLR 28/08 A2989 RMK AO2 SLP103
T02830083 $





000
SAUS46 KLOX 191957
MTRMWS
METAR KMWS 191945Z 27501G02KT 20/14 RMK SNOW DEPTH  M





000
SAUS46 KLOX 191954
MTRLAX
METAR KLAX 191953Z 26012KT 10SM FEW019 SCT035 24/17 A2989 RMK AO2
SLP120 T02390167





000
SAUS46 KLOX 191953
MTRSMX
METAR KSMX 191951Z 32009KT 10SM CLR 26/16 A2988 RMK AO2 SLP119
T02560156





000
SAUS46 KLOX 191949
MTRSDB
METAR KSDB 191948Z AUTO 26004KT 10SM FEW045 25/10 A3002 RMK AO2
SLP113 T02500100





000
SAUS46 KLOX 191948
MTRCQT
METAR KCQT 191947Z AUTO VRB03KT 10SM BKN039 27/16 A2987 RMK AO2
SLP111 T02670156





000
SAUS46 KLOX 191936
MTRMWS
METAR KMWS 191930Z 23500G00KT MM/14 RMK SNOW DEPTH  M





000
SAUS46 KLOX 191915
MTRMWS
METAR KMWS 191900Z 27502G03KT 20/14 RMK SNOW DEPTH  M





000
SAUS46 KLOX 191855
MTR9L2
METAR K9L2 191855Z AUTO VRB03KT 10SM CLR 27/09 A2990 RMK AO2 SLP109
T02670089 $





000
SAUS46 KLOX 191854
MTRMWS
METAR KMWS 191845Z 23502G04KT 20/15 RMK SNOW DEPTH  M





000
SAUS46 KLOX 191854
MTRLAX
METAR KLAX 191853Z 25007KT 10SM FEW019 SCT033 SCT040 24/17 A2990 RMK
AO2 SLP124 T02390167





000
SAUS46 KLOX 191852
MTRSMX
METAR KSMX 191851Z 29006KT 10SM FEW035 26/15 A2989 RMK AO2 SLP122
T02610150





000
SAUS46 KLOX 191849
MTRSDB
METAR KSDB 191848Z AUTO VRB04KT 10SM CLR 24/09 A3003 RMK AO2 SLP116
T02440089





000
SAUS46 KLOX 191848
MTRCQT
METAR KCQT 191847Z AUTO VRB03KT 10SM BKN036 27/16 A2988 RMK AO2
SLP117 T02670161





000
SAUS46 KLOX 191836
MTRMWS
METAR KMWS 191830Z 23500G00KT MM/13 RMK SNOW DEPTH  M





000
SAUS46 KLOX 191815
MTRMWS
METAR KMWS 191800Z 24003G05KT 20/13 RMK SNOW DEPTH  M





000
SAUS46 KLOX 191756
MTR9L2
METAR K9L2 191755Z AUTO 13004KT 10SM CLR 25/10 A2991 RMK AO2 SLP112
T02500100 10250 20172 50001 $





000
SAUS46 KLOX 191754
MTRMWS
METAR KMWS 191745Z 27001G03KT 20/12 RMK SNOW DEPTH  M





000
SAUS46 KLOX 191754
MTRLAX
METAR KLAX 191753Z VRB04KT 10SM FEW025 BKN031 24/16 A2991 RMK AO2
SLP126 T02440156 10244 20200 58000





000
SAUS46 KLOX 191752
MTRSMX
METAR KSMX 191751Z 00000KT 10SM FEW016 24/15 A2991 RMK AO2 SLP128
T02390150 10244 20189 58004





000
SAUS46 KLOX 191749
MTRSDB
METAR KSDB 191748Z AUTO 34012G20KT 320V040 10SM CLR 21/11 A3004 RMK
AO2 SLP120 T02110106 10211 20133 52003





000
SAUS46 KLOX 191748
MTRCQT
METAR KCQT 191747Z AUTO 12005KT 10SM BKN033 24/16 A2990 RMK AO2
SLP121 T02440156 10250 20200 58000





000
SAUS46 KLOX 191736
MTRMWS
METAR KMWS 191730Z 23500G00KT MM/08 RMK SNOW DEPTH  M





000
SAUS46 KLOX 191715
MTRMWS
METAR KMWS 191700Z 27001G02KT 21/11 RMK SNOW DEPTH  M





000
SAUS46 KLOX 191658
MTR9L2
METAR K9L2 191655Z AUTO 00000KT 10SM CLR 23/10 A2991 RMK AO2 SLP115
T02330100 $





000
SAUS46 KLOX 191654
MTRMWS
METAR KMWS 191645Z 25000G01KT 19/10 RMK SNOW DEPTH  M





000
SAUS46 KLOX 191654
MTRLAX
METAR KLAX 191653Z 19004KT 10SM FEW024 BKN033 22/16 A2992 RMK AO2
SLP129 T02220161





000
SAUS46 KLOX 191653
MTRSMX
METAR KSMX 191651Z VRB04KT 9SM SCT016 22/15 A2992 RMK AO2 SLP131
T02170150





000
SAUS46 KLOX 191649
MTRSDB
METAR KSDB 191648Z AUTO 35010G16KT 10SM CLR 20/11 A3003 RMK AO2
SLP122 T02000106





000
SAUS46 KLOX 191648
MTRCQT
METAR KCQT 191647Z AUTO 00000KT 10SM OVC033 23/17 A2991 RMK AO2
SLP124 T02280167





000
SAUS46 KLOX 191636
MTRMWS
METAR KMWS 191630Z 23500G00KT MM/11 RMK SNOW DEPTH  M





000
SAUS46 KLOX 191615
MTRMWS
METAR KMWS 191600Z 24000G02KT 20/10 RMK SNOW DEPTH  M





000
SAUS46 KLOX 191604
MTRLAX
SPECI KLAX 191603Z 27003KT 10SM FEW024 BKN030 21/16 A2992 RMK AO2





000
SAUS46 KLOX 191555
MTR9L2
METAR K9L2 191555Z AUTO 23007KT 10SM CLR 22/11 A2991 RMK AO2 SLP114
T02220106 $





000
SAUS46 KLOX 191554
MTRCQT
SPECI KCQT 191553Z AUTO 00000KT 10SM OVC030 22/17 A2991 RMK AO2
T02170167





000
SAUS46 KLOX 191554
MTRLAX
METAR KLAX 191553Z 24004KT 10SM FEW022 BKN029 21/16 A2992 RMK AO2
SLP128 T02110161





000
SAUS46 KLOX 191553
MTRSMX
METAR KSMX 191551Z 28003KT 9SM BKN016 20/15 A2992 RMK AO2 SLP133
T02000150





000
SAUS46 KLOX 191549
MTRSDB
METAR KSDB 191548Z AUTO 33013KT 10SM CLR 18/11 A3003 RMK AO2 SLP122
T01780106





000
SAUS46 KLOX 191548
MTRCQT
METAR KCQT 191547Z AUTO 00000KT 10SM OVC029 22/17 A2990 RMK AO2
SLP124 T02170167





000
SAUS46 KLOX 191536
MTRMWS
METAR KMWS 191530Z 23500G00KT MM/10 RMK SNOW DEPTH  M





000
SAUS46 KLOX 191515
MTRMWS
METAR KMWS 191500Z 02501G02KT 16/08 RMK SNOW DEPTH  M





000
SAUS46 KLOX 191456
MTR9L2
METAR K9L2 191455Z AUTO 20005KT 10SM CLR 19/11 A2990 RMK AO2 SLP113
T01890111 53014 $





000
SAUS46 KLOX 191454
MTRMWS
METAR KMWS 191445Z  0002G02KT 15/08 RMK SNOW DEPTH  M





000
SAUS46 KLOX 191454
MTRLAX
METAR KLAX 191453Z 31005KT 10SM FEW022 BKN029 21/16 A2991 RMK AO2
SLP126 T02060161 53012





000
SAUS46 KLOX 191452
MTRSMX
METAR KSMX 191451Z 30005KT 8SM OVC017 19/15 A2992 RMK AO2 SLP132
T01940150 53012





000
SAUS46 KLOX 191449
MTRSDB
METAR KSDB 191448Z AUTO 33009KT 10SM CLR 14/11 A3002 RMK AO2 SLP125
T01440106 53010 $





000
SAUS46 KLOX 191448
MTRCQT
METAR KCQT 191447Z AUTO 00000KT 10SM FEW021 OVC027 21/17 A2990 RMK
AO2 SLP121 T02110167 53010





000
SAUS46 KLOX 191436
MTRMWS
METAR KMWS 191430Z 23500G00KT MM/07 RMK SNOW DEPTH  M





000
SAUS46 KLOX 191415
MTRMWS
METAR KMWS 191400Z 16002G02KT 11/08 RMK SNOW DEPTH  M





000
SAUS46 KLOX 191359
MTR9L2
METAR K9L2 191355Z AUTO 24010KT 10SM CLR 17/11 A2989 RMK AO2 SLP107
T01720111 $





000
SAUS46 KLOX 191354
MTRMWS
METAR KMWS 191345Z 17002G03KT 11/07 RMK SNOW DEPTH  M





000
SAUS46 KLOX 191354
MTRLAX
METAR KLAX 191353Z 24003KT 10SM FEW016 OVC024 21/16 A2989 RMK AO2
SLP120 T02060161





000
SAUS46 KLOX 191352
MTRSMX
METAR KSMX 191351Z 31005KT 9SM OVC017 19/15 A2991 RMK AO2 SLP128
T01890150





000
SAUS46 KLOX 191349
MTRCQT
METAR KCQT 191347Z AUTO 00000KT 10SM OVC025 21/17 A2988 RMK AO2
SLP116 T02110167





000
SAUS46 KLOX 191349
MTRSDB
METAR KSDB 191348Z AUTO 32005KT 9SM CLR 13/11 A3001 RMK AO2 SLP120
T01330106 $





000
SAUS46 KLOX 191336
MTRMWS
METAR KMWS 191330Z 23500G00KT MM/08 RMK SNOW DEPTH  M





000
SAUS46 KLOX 191315
MTRMWS
METAR KMWS 191300Z 16003G03KT 10/07 RMK SNOW DEPTH  M





000
SAUS46 KLOX 191256
MTR9L2
METAR K9L2 191255Z AUTO 24007KT 10SM CLR 18/11 A2987 RMK AO2 SLP100
T01780111 $





000
SAUS46 KLOX 191254
MTRMWS
METAR KMWS 191245Z 12501G02KT 11/09 RMK SNOW DEPTH  M





000
SAUS46 KLOX 191254
MTRLAX
METAR KLAX 191253Z 00000KT 10SM FEW014 BKN020 21/16 A2988 RMK AO2
SLP115 T02060161





000
SAUS46 KLOX 191253
MTRSMX
METAR KSMX 191251Z 29003KT 5SM HZ OVC016 19/15 A2989 RMK AO2 SLP123
T01890150





000
SAUS46 KLOX 191249
MTRSDB
METAR KSDB 191248Z AUTO 29010KT 10SM CLR 14/10 A3000 RMK AO2 SLP109
T01440100 $





000
SAUS46 KLOX 191248
MTRCQT
METAR KCQT 191247Z AUTO 00000KT 10SM OVC022 21/17 A2987 RMK AO2
SLP112 T02060167





000
SAUS46 KLOX 191236
MTRMWS
METAR KMWS 191230Z 23500G00KT MM/08 RMK SNOW DEPTH  M





000
SAUS46 KLOX 191215
MTRMWS
METAR KMWS 191200Z 17004G04KT 10/08 RMK SNOW DEPTH  M





000
SAUS46 KLOX 191159
MTR9L2
METAR K9L2 191155Z AUTO 23012KT 10SM CLR 18/10 A2986 RMK AO2 SLP094
T01780100 10211 20178 53002 $





000
SAUS46 KLOX 191154
MTRMWS
METAR KMWS 191145Z 16504G04KT 10/07 RMK SNOW DEPTH  M





000
SAUS46 KLOX 191154
MTRLAX
METAR KLAX 191153Z 36003KT 10SM BKN016 20/17 A2988 RMK AO2 SLP114
T02000167 10211 20194 53000





000
SAUS46 KLOX 191153
MTRSMX
METAR KSMX 191151Z AUTO 27004KT 8SM OVC017 18/15 A2989 RMK AO2
SLP120 T01830150 10200 20167 58005





000
SAUS46 KLOX 191149
MTRSDB
METAR KSDB 191148Z AUTO 30007KT 10SM CLR 15/10 A2999 RMK AO2 SLP105
T01500100 10183 20139 56002 $





000
SAUS46 KLOX 191148
MTRCQT
METAR KCQT 191147Z AUTO 00000KT 10SM OVC021 20/17 A2987 RMK AO2
SLP111 T02000167 10217 20194 50000





000
SAUS46 KLOX 191136
MTRMWS
METAR KMWS 191130Z 23500G00KT MM/08 RMK SNOW DEPTH  M





000
SAUS46 KLOX 191115
MTRMWS
METAR KMWS 191100Z 23003G04KT 11/09 RMK SNOW DEPTH  M





000
SAUS46 KLOX 191056
MTR9L2
METAR K9L2 191055Z AUTO 22012KT 10SM CLR 18/10 A2985 RMK AO2 SLP091
T01830100 $





000
SAUS46 KLOX 191055
MTRLAX
METAR KLAX 191053Z 27005KT 10SM FEW010 BKN016 19/17 A2988 RMK AO2
SLP115 CIG 014V018 T01940167





000
SAUS46 KLOX 191054
MTRMWS
METAR KMWS 191045Z 23005G05KT 12/10 RMK SNOW DEPTH  M





000
SAUS46 KLOX 191052
MTRSMX
METAR KSMX 191051Z AUTO 27003KT 8SM OVC018 18/15 A2989 RMK AO2
SLP121 T01830150





000
SAUS46 KLOX 191050
MTRLAX
SPECI KLAX 191049Z 27007KT 10SM FEW010 BKN016 19/17 A2988 RMK AO2
CIG 014V018





000
SAUS46 KLOX 191049
MTRSDB
METAR KSDB 191048Z AUTO 34011KT 10SM CLR 14/10 A2999 RMK AO2 SLP105
T01440100 $





000
SAUS46 KLOX 191048
MTRCQT
METAR KCQT 191047Z AUTO 28003KT 10SM OVC020 19/17 A2987 RMK AO2
SLP113 T01940167





000
SAUS46 KLOX 191036
MTRMWS
METAR KMWS 191030Z 23500G00KT MM/08 RMK SNOW DEPTH  M





000
SAUS46 KLOX 191021
MTRLAX
SPECI KLAX 191020Z 24003KT 10SM FEW010 BKN014 19/17 A2988 RMK AO2





000
SAUS46 KLOX 191015
MTRMWS
METAR KMWS 191000Z 19505G07KT 11/08 RMK SNOW DEPTH  M





000
SAUS46 KLOX 190959
MTR9L2
METAR K9L2 190955Z AUTO 23012KT 10SM CLR 19/11 A2985 RMK AO2 SLP090
T01940106 $





000
SAUS46 KLOX 190958
MTRCQT
SPECI KCQT 190957Z AUTO 00000KT 10SM BKN021 19/17 A2987 RMK AO2
T01940167





000
SAUS46 KLOX 190954
MTRMWS
METAR KMWS 190945Z 19003G05KT 11/09 RMK SNOW DEPTH  M





000
SAUS46 KLOX 190954
MTRLAX
METAR KLAX 190953Z 25004KT 10SM FEW010 SCT014 19/17 A2987 RMK AO2
SLP113 SCT V BKN T01940167





000
SAUS46 KLOX 190952
MTRSMX
METAR KSMX 190951Z AUTO 33004KT 7SM OVC017 18/15 A2990 RMK AO2
SLP124 T01830150





000
SAUS46 KLOX 190949
MTRSDB
METAR KSDB 190948Z AUTO 35013G19KT 10SM CLR 15/10 A3000 RMK AO2
SLP105 T01500100 $





000
SAUS46 KLOX 190948
MTRCQT
METAR KCQT 190947Z AUTO 00000KT 10SM SCT021 19/17 A2987 RMK AO2
SLP110 T01940167





000
SAUS46 KLOX 190936
MTRMWS
METAR KMWS 190930Z 23500G00KT MM/08 RMK SNOW DEPTH  M





000
SAUS46 KLOX 190915
MTRMWS
METAR KMWS 190900Z 19505G06KT 12/10 RMK SNOW DEPTH  M





000
SAUS46 KLOX 190910
MTRCQT
SPECI KCQT 190909Z AUTO 00000KT 10SM SCT021 20/16 A2987 RMK AO2
T02000161





000
SAUS46 KLOX 190859
MTR9L2
METAR K9L2 190855Z AUTO 22010KT 10SM CLR 20/11 A2985 RMK AO2 SLP089
T02000106 50000 $





000
SAUS46 KLOX 190855
MTRLAX
METAR KLAX 190853Z 26008KT 10SM FEW012 SCT019 20/17 A2988 RMK AO2
SLP114 T02000167 53006





000
SAUS46 KLOX 190854
MTRMWS
METAR KMWS 190845Z 20505G07KT 12/09 RMK SNOW DEPTH  M





000
SAUS46 KLOX 190854
MTRCQT
SPECI KCQT 190853Z AUTO 00000KT 10SM BKN020 20/16 A2987 RMK AO2
T02000156





000
SAUS46 KLOX 190853
MTRSMX
METAR KSMX 190851Z AUTO 31003KT 6SM BR BKN019 OVC070 17/15 A2990 RMK
AO2 SLP125 T01720150 53001





000
SAUS46 KLOX 190849
MTRSDB
METAR KSDB 190848Z AUTO 34014KT 10SM CLR 16/09 A3000 RMK AO2 SLP104
T01610089 55002 $





000
SAUS46 KLOX 190848
MTRCQT
METAR KCQT 190847Z AUTO 00000KT 10SM SCT020 20/16 A2987 RMK AO2
SLP111 T02000156 53008





000
SAUS46 KLOX 190836
MTRMWS
METAR KMWS 190830Z 23500G00KT MM/09 RMK SNOW DEPTH  M





000
SAUS46 KLOX 190827
MTRSMX
SPECI KSMX 190826Z AUTO 28004KT 7SM BKN020 17/15 A2990 RMK AO2
T01720150





000
SAUS46 KLOX 190818
MTRSMX
SPECI KSMX 190817Z AUTO 00000KT 7SM SCT020 18/15 A2990 RMK AO2
T01780150





000
SAUS46 KLOX 190815
MTRMWS
METAR KMWS 190800Z 21005G06KT 13/09 RMK SNOW DEPTH  M





000
SAUS46 KLOX 190759
MTR9L2
METAR K9L2 190755Z AUTO 22012KT 10SM CLR 20/11 A2985 RMK AO2 SLP091
T02000106 403170200 $





000
SAUS46 KLOX 190754
MTRMWS
METAR KMWS 190745Z 23504G05KT 12/10 RMK SNOW DEPTH  M





000
SAUS46 KLOX 190754
MTRLAX
METAR KLAX 190753Z 26007KT 10SM FEW012 21/16 A2986 RMK AO2 SLP110
T02060161 402440194





000
SAUS46 KLOX 190753
MTRSMX
METAR KSMX 190751Z AUTO 27003KT 7SM OVC020 18/16 A2990 RMK AO2
SLP124 T01830156 402720156





000
SAUS46 KLOX 190749
MTRSDB
METAR KSDB 190748Z AUTO 31010KT 10SM CLR 17/10 A3000 RMK AO2 SLP102
T01720100 402670167 $





000
SAUS46 KLOX 190748
MTRCQT
METAR KCQT 190747Z AUTO 00000KT 10SM CLR 21/17 A2986 RMK AO2 SLP107
T02060167 402720194





000
SAUS46 KLOX 190736
MTRMWS
METAR KMWS 190730Z 23500G00KT MM/11 RMK SNOW DEPTH  M





000
SAUS46 KLOX 190717
MTRSMX
SPECI KSMX 190716Z AUTO 32004KT 8SM BKN021 18/16 A2990 RMK AO2
T01830156





000
SAUS46 KLOX 190715
MTRMWS
METAR KMWS 190700Z 21506G08KT 13/11 RMK SNOW DEPTH  M





000
SAUS46 KLOX 190708
MTRSMX
SPECI KSMX 190707Z AUTO 31005KT 7SM SCT020 18/16 A2989 RMK AO2
T01830156





000
SAUS46 KLOX 190656
MTR9L2
METAR K9L2 190655Z AUTO 22013KT 10SM CLR 21/10 A2985 RMK AO2 SLP091
T02060100 $





000
SAUS46 KLOX 190654
MTRMWS
METAR KMWS 190645Z 21507G07KT 12/10 RMK SNOW DEPTH  M





000
SAUS46 KLOX 190654
MTRLAX
METAR KLAX 190653Z 27012KT 10SM FEW012 21/16 A2986 RMK AO2 SLP109
T02060161





000
SAUS46 KLOX 190653
MTRSMX
METAR KSMX 190651Z AUTO 29005KT 7SM OVC020 19/16 A2989 RMK AO2
SLP123 T01890161





000
SAUS46 KLOX 190649
MTRSDB
METAR KSDB 190648Z AUTO 32009KT 10SM CLR 18/11 A3000 RMK AO2 SLP105
T01780106 $





000
SAUS46 KLOX 190648
MTRCQT
METAR KCQT 190647Z AUTO 00000KT 10SM CLR 21/16 A2985 RMK AO2 SLP106
T02110161





000
SAUS46 KLOX 190636
MTRMWS
METAR KMWS 190630Z 23500G00KT MM/09 RMK SNOW DEPTH  M





000
SAUS46 KLOX 190615
MTRMWS
METAR KMWS 190600Z 19504G04KT 13/11 RMK SNOW DEPTH  M





000
SAUS46 KLOX 190556
MTR9L2
METAR K9L2 190555Z AUTO 23014KT 10SM CLR 21/10 A2985 RMK AO2 SLP090
T02110100 10294 20206 51013 $





000
SAUS46 KLOX 190554
MTRMWS
METAR KMWS 190545Z 23004G05KT 13/11 RMK SNOW DEPTH  M





000
SAUS46 KLOX 190554
MTRLAX
METAR KLAX 190553Z 25009KT 9SM FEW010 21/17 A2986 RMK AO2 SLP108
T02060172 10228 20206 51007





000
SAUS46 KLOX 190553
MTRSMX
METAR KSMX 190551Z AUTO 30004KT 8SM OVC018 20/16 A2990 RMK AO2
SLP124 T02000156 10239 20194 51009





000
SAUS46 KLOX 190549
MTRSDB
METAR KSDB 190548Z AUTO 29005KT 10SM CLR 17/11 A3001 RMK AO2 SLP108
T01720111 10239 20167 51006 $





000
SAUS46 KLOX 190548
MTRCQT
METAR KCQT 190547Z AUTO 00000KT 10SM CLR 22/17 A2984 RMK AO2 SLP103
T02170167 10250 20211 51006





000
SAUS46 KLOX 190536
MTRMWS
METAR KMWS 190530Z 23500G00KT MM/11 RMK SNOW DEPTH  M





000
SAUS46 KLOX 190515
MTRMWS
METAR KMWS 190500Z 21006G08KT 14/09 RMK SNOW DEPTH  M





000
SAUS46 KLOX 190459
MTR9L2
METAR K9L2 190455Z AUTO 23016G21KT 10SM CLR 21/11 A2985 RMK AO2
SLP089 T02110106 $





000
SAUS46 KLOX 190454
MTRLAX
METAR KLAX 190453Z 26008KT 10SM FEW011 21/17 A2985 RMK AO2 SLP106
T02110172





000
SAUS46 KLOX 190454
MTRMWS
METAR KMWS 190445Z 21005G07KT 14/09 RMK SNOW DEPTH  M





000
SAUS46 KLOX 190452
MTRSMX
METAR KSMX 190451Z AUTO 32009KT 8SM BKN016 OVC025 19/16 A2989 RMK
AO2 SLP122 T01940161





000
SAUS46 KLOX 190449
MTRCQT
METAR KCQT 190447Z AUTO 00000KT 10SM CLR 21/17 A2984 RMK AO2 SLP103
T02110167





000
SAUS46 KLOX 190449
MTRSDB
METAR KSDB 190448Z AUTO 21004KT 10SM CLR 17/12 A3000 RMK AO2 SLP107
T01720117 $





000
SAUS46 KLOX 190436
MTRMWS
METAR KMWS 190430Z 23500G00KT MM/07 RMK SNOW DEPTH  M





000
SAUS46 KLOX 190421
MTRSMX
SPECI KSMX 190420Z AUTO 30009KT 8SM SCT007 OVC025 19/16 A2989 RMK
AO2 T01940161





000
SAUS46 KLOX 190415
MTRMWS
METAR KMWS 190400Z 16502G04KT 14/10 RMK SNOW DEPTH  M





000
SAUS46 KLOX 190359
MTR9L2
METAR K9L2 190355Z AUTO 23014G24KT 10SM CLR 22/12 A2984 RMK AO2 PK
WND 24026/0304 SLP088 T02220117 $





000
SAUS46 KLOX 190354
MTRLAX
METAR KLAX 190353Z 25011KT 10SM FEW011 21/17 A2985 RMK AO2 SLP105
T02060167





000
SAUS46 KLOX 190354
MTRMWS
METAR KMWS 190345Z 13502G03KT 14/09 RMK SNOW DEPTH  M





000
SAUS46 KLOX 190353
MTRSMX
METAR KSMX 190351Z AUTO 30009KT 8SM OVC006 19/17 A2988 RMK AO2
SLP119 T01940167





000
SAUS46 KLOX 190349
MTRSDB
METAR KSDB 190348Z AUTO 25004KT 10SM CLR 18/12 A3000 RMK AO2 SLP108
T01780117 $





000
SAUS46 KLOX 190348
MTRCQT
METAR KCQT 190347Z AUTO 00000KT 10SM CLR 22/16 A2984 RMK AO2 SLP101
T02170161





000
SAUS46 KLOX 190336
MTRMWS
METAR KMWS 190330Z 23500G00KT MM/10 RMK SNOW DEPTH  M





000
SAUS46 KLOX 190315
MTRMWS
METAR KMWS 190300Z 23003G03KT 13/10 RMK SNOW DEPTH  M





000
SAUS46 KLOX 190257
MTR9L2
METAR K9L2 190255Z AUTO 23020G26KT 10SM CLR 23/11 A2981 RMK AO2 PK
WND 24027/0211 SLP079 T02330106 53009 $





000
SAUS46 KLOX 190254
MTRLAX
METAR KLAX 190253Z 26020KT 10SM FEW012 SCT075 22/16 A2983 RMK AO2
SLP101 T02170161 53003





000
SAUS46 KLOX 190253
MTRSMX
METAR KSMX 190251Z 29008KT 8SM BKN009 20/17 A2987 RMK AO2 SLP114
T02000167 51006





000
SAUS46 KLOX 190249
MTRSDB
METAR KSDB 190248Z AUTO 24003KT 10SM FEW048 17/12 A2998 RMK AO2
SLP105 T01720122 53006 $





000
SAUS46 KLOX 190248
MTRCQT
METAR KCQT 190247Z AUTO 00000KT 10SM CLR 22/16 A2983 RMK AO2 SLP097
T02170161 53006





000
SAUS46 KLOX 190236
MTRMWS
METAR KMWS 190230Z 23500G00KT MM/11 RMK SNOW DEPTH  M





    US Dept of Commerce
    National Oceanic and Atmospheric Administration
    National Weather Service
    1325 East West Highway
    Silver Spring, MD 20910
    Page Author: NWS Internet Services Team
Disclaimer
Information Quality
Credits
Glossary
Privacy Policy
Freedom of Information Act (FOIA)
About Us
Career Opportunities